Data Archive--February, 2005

Date Time Heat Index Current Temp Wind Chill High Temp Low Temp Humidity Dew Point Wind Speed Gust Wind Direction Rain Barometer
02/04/2005 10:30 a -- 40.4 40.4 41.3 39.8 -- -- 1.0 5.0 SSW 0.02 30.095
02/04/2005 11:00 a -- 42.3 42.3 43.1 40.9 -- -- 1.0 4.0 SSW 0.01 30.100
02/04/2005 11:30 a -- 43.9 43.9 45.4 42.5 -- -- 1.0 7.0 SSW 0.00 30.088
02/04/2005 12:00 p -- 44.2 44.2 44.6 43.6 -- -- 1.0 5.0 SW 0.00 30.080
02/04/2005 12:30 p -- 45.1 45.1 46.5 44.3 -- -- 2.0 8.0 SW 0.00 30.070
02/04/2005 1:00 p -- 45.4 45.4 46.5 44.5 -- -- 2.0 8.0 SW 0.00 30.061
02/04/2005 1:30 p -- 46.3 46.3 47.1 45.5 -- -- 1.0 5.0 SW 0.00 30.054
02/04/2005 2:00 p -- 46.9 46.9 48.4 45.1 -- -- 1.0 6.0 SW 0.00 30.046
02/04/2005 2:30 p -- 48.2 48.2 49.1 47.5 -- -- 1.0 4.0 SW 0.00 30.053
02/04/2005 3:00 p -- 47.7 47.7 48.5 46.9 -- -- 1.0 4.0 SSW 0.00 30.061
02/04/2005 3:30 p -- 47.3 47.3 47.6 46.9 -- -- 0.0 3.0 WSW 0.00 30.066
02/04/2005 4:00 p -- 46.7 46.7 47.6 45.3 -- -- 0.0 4.0 SSW 0.00 30.070
02/04/2005 4:30 p -- 45.2 45.2 45.4 44.9 -- -- 0.0 4.0 SW 0.00 30.068
02/04/2005 5:00 p -- 44.4 44.4 45.0 43.8 -- -- 0.0 2.0 SSW 0.00 30.076
02/04/2005 5:30 p -- 43.3 43.3 44.0 42.5 -- -- 0.0 1.0 SSW 0.00 30.084
02/04/2005 6:00 p -- 41.0 41.0 42.7 38.2 -- -- 0.0 0.0 --- 0.00 30.098
02/04/2005 6:30 p -- 37.4 37.4 38.2 36.5 -- -- 0.0 0.0 --- 0.00 30.096
02/04/2005 7:00 p -- 36.0 36.0 36.7 35.1 -- -- 0.0 1.0 SSW 0.00 30.102
02/04/2005 7:30 p -- 34.3 34.3 35.5 33.3 -- -- 0.0 0.0 --- 0.00 30.103
02/04/2005 8:00 p -- 33.5 33.5 34.4 32.8 -- -- 0.0 0.0 --- 0.00 30.101
02/04/2005 8:30 p -- 34.4 34.4 36.5 33.2 -- -- 0.0 0.0 --- 0.00 30.112
02/04/2005 9:00 p -- 36.0 36.0 37.8 34.8 -- -- 0.0 1.0 SSW 0.00 30.118
02/04/2005 9:30 p -- 38.2 38.2 38.6 37.6 -- -- 0.0 2.0 S 0.00 30.121
02/04/2005 10:00 p -- 36.5 36.5 38.2 35.4 -- -- 0.0 1.0 S 0.00 30.125
02/04/2005 10:30 p -- 39.2 39.2 39.9 38.1 -- -- 0.0 3.0 S 0.00 30.128
02/04/2005 11:00 p -- 39.4 39.4 40.0 38.6 -- -- 0.0 2.0 SW 0.00 30.121
02/04/2005 11:30 p -- 39.6 39.6 40.1 39.1 -- -- 0.0 3.0 SW 0.00 30.121
02/05/2005 12:00 a -- 37.7 37.7 39.8 36.0 -- -- 0.0 3.0 S 0.00 30.116
02/05/2005 12:30 a -- 37.2 37.2 39.5 35.1 -- -- 0.0 3.0 SSE 0.00 30.116
02/05/2005 1:00 a -- 39.1 39.1 39.5 38.6 -- -- 0.0 4.0 SSW 0.00 30.122
02/05/2005 1:30 a -- 38.9 38.9 39.4 38.5 -- -- 0.0 3.0 S 0.00 30.123
02/05/2005 2:00 a -- 39.5 39.5 39.9 39.1 -- -- 1.0 5.0 SW 0.00 30.123
02/05/2005 2:30 a -- 39.7 39.7 40.4 39.0 -- -- 1.0 5.0 SSW 0.00 30.135
02/05/2005 3:00 a -- 38.5 38.5 39.1 37.8 -- -- 0.0 3.0 SSE 0.00 30.138
02/05/2005 3:30 a -- 37.8 37.8 38.3 36.9 -- -- 0.0 3.0 SSE 0.00 30.143
02/05/2005 4:00 a -- 38.2 38.2 38.6 37.5 -- -- 1.0 4.0 SSE 0.00 30.160
02/05/2005 4:30 a -- 37.4 37.4 37.8 37.1 -- -- 0.0 4.0 SSE 0.00 30.165
02/05/2005 5:00 a -- 37.5 37.5 37.9 37.1 -- -- 1.0 4.0 SW 0.00 30.173
02/05/2005 5:30 a -- 37.6 37.6 37.9 37.2 -- -- 1.0 3.0 SSW 0.00 30.184
02/05/2005 6:00 a -- 37.2 37.2 37.7 36.4 -- -- 0.0 2.0 SSW 0.00 30.191
02/05/2005 6:30 a -- 35.4 35.4 36.9 34.7 -- -- 0.0 1.0 SSW 0.00 30.207
02/05/2005 7:00 a -- 33.7 33.7 35.9 32.8 -- -- 0.0 1.0 SSW 0.00 30.220
02/05/2005 7:30 a -- 34.6 34.6 35.9 33.7 -- -- 0.0 2.0 SSW 0.00 30.236
02/05/2005 8:00 a -- 38.0 38.0 39.2 36.0 -- -- 0.0 2.0 SSW 0.00 30.244
02/05/2005 8:30 a -- 40.4 40.4 41.7 39.1 -- -- 1.0 4.0 SSW 0.00 30.247
02/05/2005 9:00 a -- 42.2 42.2 42.8 41.6 -- -- 2.0 6.0 WSW 0.00 30.248
02/05/2005 9:30 a -- 43.5 43.5 44.1 42.6 -- -- 1.0 5.0 SW 0.00 30.253
02/05/2005 10:00 a -- 44.8 44.8 46.1 44.0 -- -- 1.0 7.0 SW 0.00 30.264
02/05/2005 10:30 a -- 46.9 46.9 47.8 46.1 -- -- 2.0 7.0 SW 0.00 30.270
02/05/2005 11:00 a -- 48.8 48.8 49.6 47.6 -- -- 2.0 6.0 SSW 0.00 30.259
02/05/2005 11:30 a -- 50.2 50.2 51.9 49.2 -- -- 2.0 7.0 SW 0.00 30.258
02/05/2005 12:00 p -- 52.0 52.0 53.2 50.7 -- -- 1.0 6.0 SW 0.00 30.249
02/05/2005 12:30 p -- 52.4 52.4 53.2 51.7 -- -- 1.0 6.0 SW 0.00 30.244
02/05/2005 1:00 p -- 53.2 53.2 53.8 52.4 -- -- 1.0 4.0 SW 0.00 30.238
02/05/2005 1:30 p -- 54.0 54.0 54.5 53.5 -- -- 1.0 4.0 SSE 0.00 30.231
02/05/2005 2:00 p -- 54.2 54.2 54.7 53.4 -- -- 1.0 4.0 SSW 0.00 30.230
02/05/2005 2:30 p -- 54.1 54.1 54.4 53.8 -- -- 1.0 4.0 SSE 0.00 30.234
02/05/2005 3:00 p -- 53.8 53.8 54.3 53.3 -- -- 1.0 5.0 SW 0.00 30.242
02/05/2005 3:30 p -- 53.2 53.2 53.6 52.6 -- -- 1.0 5.0 SW 0.00 30.241
02/05/2005 4:00 p -- 52.4 52.4 53.1 51.8 -- -- 0.0 3.0 SW 0.00 30.251
02/05/2005 4:30 p -- 51.5 51.5 52.3 50.5 -- -- 0.0 3.0 S 0.00 30.252
02/05/2005 5:00 p -- 50.1 50.1 50.9 48.9 -- -- 0.0 2.0 SSW 0.00 30.253
02/05/2005 5:30 p -- 48.4 48.4 49.5 46.7 -- -- 0.0 2.0 SSW 0.00 30.260
02/05/2005 6:00 p -- 44.4 44.4 46.7 42.4 -- -- 0.0 0.0 --- 0.00 30.266
02/05/2005 6:30 p -- 40.9 40.9 42.5 39.9 -- -- 0.0 0.0 --- 0.00 30.277
02/05/2005 7:00 p -- 38.1 38.1 39.9 37.3 -- -- 0.0 0.0 --- 0.00 30.284
02/05/2005 7:30 p -- 37.2 37.2 38.1 36.0 -- -- 0.0 0.0 --- 0.00 30.290
02/05/2005 8:00 p -- 35.6 35.6 37.2 34.2 -- -- 0.0 0.0 --- 0.00 30.305
02/05/2005 8:30 p -- 34.5 34.5 35.1 33.6 -- -- 0.0 0.0 --- 0.00 30.318
02/05/2005 9:00 p -- 32.9 32.9 33.6 32.5 -- -- 0.0 0.0 --- 0.00 30.331
02/05/2005 9:30 p -- 32.1 32.1 32.5 31.6 -- -- 0.0 0.0 --- 0.00 30.339
02/05/2005 10:00 p -- 31.7 31.7 32.3 31.3 -- -- 0.0 0.0 --- 0.00 30.342
02/05/2005 10:30 p -- 31.4 31.4 32.1 30.7 -- -- 0.0 0.0 --- 0.00 30.342
02/05/2005 11:00 p -- 30.4 30.4 30.7 30.1 -- -- 0.0 0.0 --- 0.00 30.344
02/05/2005 11:30 p -- 30.2 30.2 30.4 29.8 -- -- 0.0 0.0 --- 0.00 30.344
02/06/2005 12:00 a -- 29.6 29.6 30.1 29.3 -- -- 0.0 0.0 --- 0.00 30.345
02/06/2005 12:30 a -- 29.7 29.7 31.1 29.1 -- -- 0.0 0.0 --- 0.00 30.345
02/06/2005 1:00 a -- 30.1 30.1 30.5 29.6 -- -- 0.0 0.0 --- 0.00 30.343
02/06/2005 1:30 a -- 29.7 29.7 30.3 29.2 -- -- 0.0 1.0 SSW 0.00 30.354
02/06/2005 2:00 a -- 29.3 29.3 29.7 29.1 -- -- 0.0 0.0 --- 0.00 30.363
02/06/2005 2:30 a -- 29.2 29.2 29.7 28.8 -- -- 0.0 1.0 --- 0.00 30.372
02/06/2005 3:00 a -- 30.0 30.0 31.9 29.0 -- -- 0.0 1.0 --- 0.00 30.373
02/06/2005 3:30 a -- 29.5 29.5 30.8 28.8 -- -- 0.0 0.0 --- 0.00 30.383
02/06/2005 4:00 a -- 28.4 28.4 28.9 28.0 -- -- 0.0 0.0 --- 0.00 30.393
02/06/2005 4:30 a -- 28.6 28.6 28.8 28.1 -- -- 0.0 0.0 --- 0.00 30.395
02/06/2005 5:00 a -- 28.2 28.2 28.6 28.0 -- -- 0.0 0.0 --- 0.00 30.402
02/06/2005 5:30 a -- 28.2 28.2 29.0 27.8 -- -- 0.0 0.0 --- 0.00 30.396
02/06/2005 6:00 a -- 29.1 29.1 30.2 28.3 -- -- 0.0 0.0 --- 0.00 30.425
02/06/2005 6:30 a -- 28.4 28.4 28.9 28.0 -- -- 0.0 0.0 --- 0.00 30.423
02/06/2005 7:00 a -- 27.4 27.4 28.2 26.8 -- -- 0.0 1.0 SSW 0.00 30.445
02/06/2005 7:30 a -- 27.5 27.5 28.2 26.9 -- -- 0.0 0.0 --- 0.00 30.455
02/06/2005 8:00 a -- 29.5 29.5 32.0 28.1 -- -- 0.0 0.0 --- 0.00 30.452
02/06/2005 8:30 a -- 35.3 35.3 39.8 32.0 -- -- 0.0 0.0 --- 0.00 30.473
02/06/2005 9:00 a -- 43.0 43.0 44.4 39.9 -- -- 0.0 2.0 W 0.00 30.478
02/06/2005 9:30 a -- 45.0 45.0 46.0 44.4 -- -- 1.0 4.0 W 0.00 30.498
02/06/2005 10:00 a -- 46.3 46.3 46.8 45.7 -- -- 1.0 5.0 WNW 0.00 30.498
02/06/2005 10:30 a -- 47.6 47.6 48.9 46.3 -- -- 1.0 3.0 SW 0.00 30.489
02/06/2005 11:00 a -- 48.8 48.8 49.6 48.1 -- -- 1.0 4.0 W 0.00 30.472
02/06/2005 11:30 a -- 50.0 50.0 50.7 49.4 -- -- 1.0 4.0 W 0.00 30.461
02/06/2005 12:00 p -- 50.9 50.9 51.6 49.6 -- -- 1.0 3.0 WNW 0.00 30.444
02/06/2005 12:30 p -- 51.3 51.3 51.9 50.6 -- -- 1.0 4.0 WNW 0.00 30.425
02/06/2005 1:00 p -- 51.7 51.7 52.2 51.3 -- -- 1.0 4.0 N 0.00 30.407
02/06/2005 1:30 p -- 51.9 51.9 52.5 51.0 -- -- 1.0 5.0 WNW 0.00 30.400
02/06/2005 2:00 p -- 52.7 52.7 53.2 52.2 -- -- 0.0 3.0 NW 0.00 30.397
02/06/2005 2:30 p -- 52.6 52.6 52.9 51.8 -- -- 1.0 3.0 WNW 0.00 30.398
02/06/2005 3:00 p -- 52.1 52.1 52.7 51.3 -- -- 0.0 3.0 NW 0.00 30.399
02/06/2005 3:30 p -- 51.5 51.5 52.1 50.9 -- -- 0.0 3.0 NW 0.00 30.401
02/06/2005 4:00 p -- 49.6 49.6 51.1 48.1 -- -- 1.0 4.0 N 0.00 30.401
02/06/2005 4:30 p -- 47.7 47.7 48.5 47.1 -- -- 0.0 3.0 N 0.00 30.414
02/06/2005 5:00 p -- 46.0 46.0 47.1 45.1 -- -- 0.0 2.0 N 0.00 30.405
02/06/2005 5:30 p -- 43.9 43.9 45.1 41.8 -- -- 0.0 0.0 --- 0.00 30.408
02/06/2005 6:00 p -- 41.2 41.2 42.2 39.9 -- -- 0.0 0.0 --- 0.00 30.414
02/06/2005 6:30 p -- 39.1 39.1 39.9 37.2 -- -- 0.0 0.0 --- 0.00 30.414
02/06/2005 7:00 p -- 37.1 37.1 38.2 36.1 -- -- 0.0 0.0 --- 0.00 30.419
02/06/2005 7:30 p -- 35.8 35.8 36.8 34.9 -- -- 0.0 0.0 --- 0.00 30.424
02/06/2005 8:00 p -- 34.7 34.7 35.3 33.7 -- -- 0.0 0.0 --- 0.00 30.414
02/06/2005 8:30 p -- 33.3 33.3 34.0 32.7 -- -- 0.0 0.0 --- 0.00 30.413
02/06/2005 9:00 p -- 32.9 32.9 33.4 32.5 -- -- 0.0 0.0 --- 0.00 30.419
02/06/2005 9:30 p -- 32.1 32.1 32.5 31.6 -- -- 0.0 0.0 --- 0.00 30.420
02/06/2005 10:00 p -- 31.6 31.6 31.8 31.1 -- -- 0.0 0.0 --- 0.00 30.420
02/06/2005 10:30 p -- 31.2 31.2 31.3 31.0 -- -- 0.0 0.0 --- 0.00 30.412
02/06/2005 11:00 p -- 31.1 31.1 31.3 30.7 -- -- 0.0 0.0 --- 0.00 30.410
02/06/2005 11:30 p -- 30.7 30.7 31.1 30.2 -- -- 0.0 0.0 --- 0.00 30.394
02/07/2005 12:00 a -- 30.1 30.1 30.7 29.7 -- -- 0.0 0.0 --- 0.00 30.393
02/07/2005 12:30 a -- 30.1 30.1 30.4 29.8 -- -- 0.0 0.0 --- 0.00 30.376
02/07/2005 1:00 a -- 29.8 29.8 30.2 29.2 -- -- 0.0 0.0 --- 0.00 30.348
02/07/2005 1:30 a -- 29.3 29.3 29.7 28.8 -- -- 0.0 0.0 --- 0.00 30.345
02/07/2005 2:00 a -- 28.8 28.8 29.2 28.4 -- -- 0.0 0.0 --- 0.00 30.338
02/07/2005 2:30 a -- 28.7 28.7 29.0 28.3 -- -- 0.0 0.0 --- 0.00 30.323
02/07/2005 3:00 a -- 28.4 28.4 28.9 28.2 -- -- 0.0 0.0 --- 0.00 30.318
02/07/2005 3:30 a -- 28.2 28.2 28.4 28.0 -- -- 0.0 0.0 --- 0.00 30.321
02/07/2005 4:00 a -- 28.0 28.0 28.2 27.8 -- -- 0.0 0.0 --- 0.00 30.318
02/07/2005 4:30 a -- 27.3 27.3 27.9 26.9 -- -- 0.0 0.0 --- 0.00 30.308
02/07/2005 5:00 a -- 26.7 26.7 27.2 26.1 -- -- 0.0 0.0 --- 0.00 30.292
02/07/2005 5:30 a -- 26.6 26.6 26.9 26.1 -- -- 0.0 0.0 --- 0.00 30.296
02/07/2005 6:00 a -- 25.9 25.9 26.2 25.3 -- -- 0.0 0.0 --- 0.00 30.306
02/07/2005 6:30 a -- 25.4 25.4 25.8 25.1 -- -- 0.0 0.0 --- 0.00 30.316
02/07/2005 7:00 a -- 25.1 25.1 25.5 24.8 -- -- 0.0 0.0 --- 0.00 30.317
02/07/2005 7:30 a -- 25.4 25.4 26.4 24.6 -- -- 0.0 0.0 --- 0.00 30.300
02/07/2005 8:00 a -- 28.2 28.2 30.3 26.3 -- -- 0.0 0.0 --- 0.00 30.292
02/07/2005 8:30 a -- 32.2 32.2 34.6 30.1 -- -- 0.0 0.0 --- 0.00 30.285
02/07/2005 9:00 a -- 38.1 38.1 41.1 34.6 -- -- 0.0 2.0 N 0.00 30.281
02/07/2005 9:30 a -- 42.5 42.5 43.8 41.0 -- -- 0.0 2.0 N 0.00 30.285
02/07/2005 10:00 a -- 44.8 44.8 45.7 43.8 -- -- 0.0 2.0 N 0.00 30.280
02/07/2005 10:30 a -- 46.6 46.6 47.7 45.4 -- -- 0.0 3.0 N 0.00 30.270
02/07/2005 11:00 a -- 48.5 48.5 49.4 47.5 -- -- 0.0 3.0 N 0.00 30.268
02/07/2005 11:30 a -- 49.8 49.8 51.2 48.8 -- -- 0.0 4.0 N 0.00 30.251
02/07/2005 12:00 p -- 51.5 51.5 52.2 50.8 -- -- 0.0 2.0 N 0.00 30.233
02/07/2005 12:30 p -- 52.9 52.9 54.3 51.8 -- -- 0.0 3.0 N 0.00 30.217
02/07/2005 1:00 p -- 53.3 53.3 54.3 52.2 -- -- 1.0 3.0 N 0.00 30.198
02/07/2005 1:30 p -- 53.5 53.5 54.2 52.7 -- -- 1.0 3.0 N 0.00 30.173
02/07/2005 2:00 p -- 52.7 52.7 53.6 52.1 -- -- 1.0 4.0 N 0.00 30.173
02/07/2005 2:30 p -- 51.8 51.8 52.8 50.9 -- -- 1.0 4.0 N 0.00 30.158
02/07/2005 3:00 p -- 51.2 51.2 51.8 50.7 -- -- 1.0 4.0 N 0.00 30.167
02/07/2005 3:30 p -- 51.5 51.5 51.9 51.0 -- -- 1.0 4.0 N 0.00 30.158
02/07/2005 4:00 p -- 51.4 51.4 52.5 50.3 -- -- 0.0 4.0 N 0.00 30.156
02/07/2005 4:30 p -- 50.5 50.5 51.5 49.0 -- -- 0.0 3.0 N 0.00 30.153
02/07/2005 5:00 p -- 47.6 47.6 49.5 45.0 -- -- 0.0 0.0 --- 0.00 30.143
02/07/2005 5:30 p -- 43.7 43.7 45.0 42.9 -- -- 0.0 0.0 --- 0.00 30.138
02/07/2005 6:00 p -- 42.0 42.0 43.2 40.4 -- -- 0.0 0.0 --- 0.00 30.130
02/07/2005 6:30 p -- 40.4 40.4 41.0 39.8 -- -- 0.0 0.0 --- 0.00 30.130
02/07/2005 7:00 p -- 39.1 39.1 40.1 38.3 -- -- 0.0 0.0 --- 0.00 30.135
02/07/2005 7:30 p -- 36.4 36.4 38.5 34.9 -- -- 0.0 0.0 --- 0.00 30.133
02/07/2005 8:00 p -- 34.3 34.3 35.1 33.6 -- -- 0.0 0.0 --- 0.00 30.136
02/07/2005 8:30 p -- 32.7 32.7 33.9 32.2 -- -- 0.0 0.0 --- 0.00 30.111
02/07/2005 9:00 p -- 32.4 32.4 33.4 31.4 -- -- 0.0 0.0 --- 0.00 30.106
02/07/2005 9:30 p -- 31.4 31.4 31.7 30.9 -- -- 0.0 0.0 --- 0.00 30.106
02/07/2005 10:00 p -- 31.5 31.5 31.9 31.0 -- -- 0.0 0.0 --- 0.00 30.104
02/07/2005 10:30 p -- 31.8 31.8 32.1 31.4 -- -- 0.0 0.0 --- 0.00 30.092
02/07/2005 11:00 p -- 32.0 32.0 32.5 31.5 -- -- 0.0 2.0 N 0.00 30.095
02/07/2005 11:30 p -- 32.3 32.3 32.6 31.7 -- -- 0.0 0.0 --- 0.00 30.084
02/08/2005 12:00 a -- 32.3 32.3 32.5 31.8 -- -- 0.0 0.0 --- 0.00 30.069
02/08/2005 12:30 a -- 32.0 32.0 32.5 31.6 -- -- 0.0 0.0 --- 0.00 30.058
02/08/2005 1:00 a -- 32.2 32.2 32.4 31.9 -- -- 0.0 0.0 --- 0.00 30.043
02/08/2005 1:30 a -- 32.2 32.2 32.4 31.9 -- -- 0.0 0.0 --- 0.00 30.041
02/08/2005 2:00 a -- 31.9 31.9 32.2 31.5 -- -- 0.0 0.0 --- 0.00 30.038
02/08/2005 2:30 a -- 32.1 32.1 32.7 31.6 -- -- 0.0 0.0 --- 0.00 30.037
02/08/2005 3:00 a -- 32.3 32.3 32.7 31.8 -- -- 0.0 0.0 --- 0.00 30.031
02/08/2005 3:30 a -- 32.3 32.3 32.7 31.9 -- -- 0.0 0.0 --- 0.00 30.020
02/08/2005 4:00 a -- 32.3 32.3 32.7 32.1 -- -- 0.0 2.0 N 0.00 30.010
02/08/2005 4:30 a -- 32.4 32.4 32.7 32.0 -- -- 0.0 0.0 --- 0.00 30.008
02/08/2005 5:00 a -- 32.2 32.2 32.5 31.8 -- -- 0.0 0.0 --- 0.00 30.000
02/08/2005 5:30 a -- 32.4 32.4 32.6 32.0 -- -- 0.0 0.0 --- 0.00 29.995
02/08/2005 6:00 a -- 32.5 32.5 33.1 31.9 -- -- 0.0 0.0 --- 0.00 29.999
02/08/2005 6:30 a -- 32.0 32.0 32.4 31.5 -- -- 0.0 0.0 --- 0.00 30.008
02/08/2005 7:00 a -- 32.2 32.2 32.6 31.6 -- -- 0.0 0.0 --- 0.00 30.009
02/08/2005 7:30 a -- 33.0 33.0 33.4 32.3 -- -- 0.0 0.0 --- 0.00 30.006
02/08/2005 8:00 a -- 34.0 34.0 35.0 33.1 -- -- 0.0 0.0 --- 0.00 29.997
02/08/2005 8:30 a -- 35.9 35.9 36.4 34.7 -- -- 0.0 0.0 --- 0.00 29.987
02/08/2005 9:00 a -- 37.0 37.0 38.7 35.9 -- -- 0.0 0.0 --- 0.00 29.994
02/08/2005 9:30 a -- 39.1 39.1 41.3 38.2 -- -- 0.0 2.0 N 0.00 29.972
02/08/2005 10:00 a -- 41.7 41.7 42.5 40.8 -- -- 0.0 3.0 ESE 0.00 29.988
02/08/2005 10:30 a -- 43.7 43.7 45.3 42.3 -- -- 0.0 2.0 ESE 0.00 29.978
02/08/2005 11:00 a -- 46.4 46.4 47.4 45.3 -- -- 0.0 2.0 ESE 0.00 29.971
02/08/2005 11:30 a -- 46.9 46.9 48.3 46.3 -- -- 0.0 2.0 ESE 0.00 29.959
02/08/2005 12:00 p -- 48.5 48.5 49.6 47.3 -- -- 0.0 2.0 ESE 0.00 29.946
02/08/2005 12:30 p -- 49.9 49.9 51.1 48.9 -- -- 0.0 2.0 ESE 0.00 29.919
02/08/2005 1:00 p -- 52.4 52.4 54.5 49.5 -- -- 0.0 2.0 ESE 0.00 29.893
02/08/2005 1:30 p -- 53.6 53.6 56.0 52.9 -- -- 0.0 2.0 NNE 0.00 29.890
02/08/2005 2:00 p -- 54.2 54.2 55.7 53.1 -- -- 0.0 2.0 NNE 0.00 29.882
02/08/2005 2:30 p -- 53.5 53.5 54.2 52.5 -- -- 0.0 2.0 S 0.00 29.878
02/08/2005 3:00 p -- 52.6 52.6 53.1 52.1 -- -- 0.0 3.0 S 0.00 29.878
02/08/2005 3:30 p -- 52.4 52.4 53.1 51.8 -- -- 0.0 1.0 --- 0.00 29.879
02/08/2005 4:00 p -- 51.4 51.4 52.2 50.9 -- -- 0.0 1.0 --- 0.00 29.877
02/08/2005 4:30 p -- 50.4 50.4 51.3 49.4 -- -- 0.0 0.0 --- 0.00 29.880
02/08/2005 5:00 p -- 49.4 49.4 49.9 48.5 -- -- 0.0 0.0 --- 0.00 29.885
02/08/2005 5:30 p -- 46.8 46.8 48.5 44.5 -- -- 0.0 0.0 --- 0.00 29.888
02/08/2005 6:00 p -- 44.1 44.1 45.0 43.3 -- -- 0.0 0.0 --- 0.00 29.889
02/08/2005 6:30 p -- 44.0 44.0 45.2 42.7 -- -- 0.0 0.0 --- 0.00 29.893
02/08/2005 7:00 p -- 41.4 41.4 42.7 40.6 -- -- 0.0 0.0 --- 0.00 29.894
02/08/2005 7:30 p -- 39.7 39.7 40.6 38.7 -- -- 0.0 0.0 --- 0.00 29.899
02/08/2005 8:00 p -- 38.7 38.7 39.2 37.7 -- -- 0.0 0.0 --- 0.00 29.892
02/08/2005 8:30 p -- 37.5 37.5 38.4 36.9 -- -- 0.0 0.0 --- 0.00 29.899
02/08/2005 9:00 p -- 37.0 37.0 37.5 36.6 -- -- 0.0 0.0 --- 0.00 29.902
02/08/2005 9:30 p -- 36.6 36.6 37.3 35.7 -- -- 0.0 0.0 --- 0.00 29.895
02/08/2005 10:00 p -- 35.7 35.7 36.2 35.2 -- -- 0.0 0.0 --- 0.00 29.897
02/08/2005 10:30 p -- 35.3 35.3 36.0 34.9 -- -- 0.0 0.0 --- 0.00 29.891
02/08/2005 11:00 p -- 35.7 35.7 36.2 35.2 -- -- 0.0 0.0 --- 0.00 29.894
02/08/2005 11:30 p -- 35.9 35.9 36.9 35.4 -- -- 0.0 1.0 S 0.00 29.899
02/09/2005 12:00 a -- 35.6 35.6 36.3 35.1 -- -- 0.0 0.0 --- 0.00 29.891
02/09/2005 12:30 a -- 37.1 37.1 37.7 36.1 -- -- 0.0 0.0 --- 0.00 29.876
02/09/2005 1:00 a -- 36.8 36.8 37.8 36.1 -- -- 0.0 0.0 --- 0.00 29.877
02/09/2005 1:30 a -- 36.4 36.4 37.3 35.6 -- -- 0.0 0.0 --- 0.00 29.876
02/09/2005 2:00 a -- 36.2 36.2 36.5 35.9 -- -- 0.0 0.0 --- 0.00 29.874
02/09/2005 2:30 a -- 36.5 36.5 36.9 36.0 -- -- 0.0 0.0 --- 0.00 29.867
02/09/2005 3:00 a -- 36.4 36.4 36.9 36.1 -- -- 0.0 0.0 --- 0.00 29.861
02/09/2005 3:30 a -- 37.2 37.2 37.8 36.6 -- -- 0.0 0.0 --- 0.00 29.858
02/09/2005 4:00 a -- 37.6 37.6 37.9 37.4 -- -- 0.0 0.0 --- 0.00 29.855
02/09/2005 4:30 a -- 37.3 37.3 37.6 37.1 -- -- 0.0 0.0 --- 0.00 29.855
02/09/2005 5:00 a -- 37.6 37.6 37.8 37.1 -- -- 0.0 0.0 --- 0.00 29.858
02/09/2005 5:30 a -- 37.2 37.2 38.0 36.8 -- -- 0.0 0.0 --- 0.00 29.856
02/09/2005 6:00 a -- 37.5 37.5 38.3 36.6 -- -- 0.0 0.0 --- 0.00 29.863
02/09/2005 6:30 a -- 37.0 37.0 38.1 36.6 -- -- 0.0 0.0 --- 0.00 29.861
02/09/2005 7:00 a -- 36.5 36.5 36.9 35.9 -- -- 0.0 0.0 --- 0.00 29.863
02/09/2005 7:30 a -- 37.0 37.0 37.8 36.0 -- -- 0.0 0.0 --- 0.00 29.858
02/09/2005 8:00 a -- 37.6 37.6 38.8 36.6 -- -- 0.0 0.0 --- 0.00 29.856
02/09/2005 8:30 a -- 40.2 40.2 41.6 38.8 -- -- 0.0 0.0 --- 0.00 29.862
02/09/2005 9:00 a -- 42.4 42.4 43.9 41.6 -- -- 0.0 0.0 --- 0.00 29.871
02/09/2005 9:30 a -- 45.2 45.2 46.2 43.9 -- -- 0.0 0.0 --- 0.00 29.880
02/09/2005 10:00 a -- 46.5 46.5 47.2 46.1 -- -- 0.0 0.0 --- 0.00 29.882
02/09/2005 10:30 a -- 48.5 48.5 51.1 46.7 -- -- 0.0 0.0 --- 0.00 29.878
02/09/2005 11:00 a -- 52.0 52.0 53.2 50.3 -- -- 0.0 1.0 S 0.00 29.856
02/09/2005 11:30 a -- 51.4 51.4 52.8 50.2 -- -- 0.0 3.0 SSE 0.00 29.837
02/09/2005 12:00 p -- 53.1 53.1 54.4 52.1 -- -- 0.0 2.0 WNW 0.00 29.820
02/09/2005 12:30 p -- 55.4 55.4 57.0 54.2 -- -- 0.0 2.0 WNW 0.00 29.796
02/09/2005 1:00 p -- 54.3 54.3 55.6 53.2 -- -- 0.0 2.0 WNW 0.00 29.792
02/09/2005 1:30 p -- 53.8 53.8 54.9 52.9 -- -- 0.0 0.0 --- 0.00 29.776
02/09/2005 2:00 p -- 53.9 53.9 56.3 52.4 -- -- 0.0 2.0 WNW 0.00 29.757
02/09/2005 2:30 p -- 54.0 54.0 55.4 52.8 -- -- 0.0 2.0 NNW 0.00 29.748
02/09/2005 3:00 p -- 53.9 53.9 55.3 52.8 -- -- 0.0 2.0 N 0.00 29.743
02/09/2005 3:30 p -- 53.9 53.9 54.7 53.3 -- -- 0.0 3.0 N 0.00 29.739
02/09/2005 4:00 p -- 52.5 52.5 53.5 51.4 -- -- 0.0 3.0 N 0.00 29.729
02/09/2005 4:30 p -- 51.3 51.3 52.1 50.3 -- -- 1.0 3.0 N 0.00 29.718
02/09/2005 5:00 p -- 49.9 49.9 50.4 49.0 -- -- 0.0 4.0 NNW 0.00 29.718
02/09/2005 5:30 p -- 48.2 48.2 49.2 47.5 -- -- 0.0 2.0 NNW 0.00 29.706
02/09/2005 6:00 p -- 47.4 47.4 47.8 46.9 -- -- 0.0 4.0 N 0.00 29.692
02/09/2005 6:30 p -- 46.4 46.4 47.2 45.7 -- -- 1.0 5.0 N 0.00 29.686
02/09/2005 7:00 p -- 45.6 45.6 45.9 45.3 -- -- 0.0 4.0 NNW 0.00 29.678
02/09/2005 7:30 p -- 45.0 45.0 45.5 44.6 -- -- 0.0 3.0 N 0.00 29.656
02/09/2005 8:00 p -- 44.5 44.5 44.9 44.2 -- -- 0.0 2.0 N 0.00 29.641
02/09/2005 8:30 p -- 43.9 43.9 44.2 43.6 -- -- 0.0 2.0 N 0.00 29.634
02/09/2005 9:00 p -- 43.9 43.9 44.9 43.5 -- -- 0.0 2.0 N 0.00 29.628
02/09/2005 9:30 p -- 43.5 43.5 44.3 42.9 -- -- 0.0 1.0 N 0.00 29.615
02/09/2005 10:00 p -- 43.3 43.3 44.0 42.8 -- -- 0.0 2.0 N 0.00 29.593
02/09/2005 10:30 p -- 43.5 43.5 44.2 43.0 -- -- 0.0 2.0 N 0.00 29.575
02/09/2005 11:00 p -- 43.0 43.0 43.2 42.8 -- -- 0.0 1.0 N 0.00 29.557
02/09/2005 11:30 p -- 43.3 43.3 43.5 42.8 -- -- 0.0 3.0 N 0.00 29.563
02/10/2005 12:00 a -- 43.3 43.3 43.6 42.9 -- -- 0.0 0.0 --- 0.00 29.547
02/10/2005 12:30 a -- 42.8 42.8 43.5 42.5 -- -- 0.0 0.0 --- 0.00 29.516
02/10/2005 1:00 a -- 42.3 42.3 42.9 41.7 -- -- 0.0 0.0 --- 0.00 29.496
02/10/2005 1:30 a -- 41.9 41.9 42.2 41.4 -- -- 0.0 0.0 --- 0.00 29.482
02/10/2005 2:00 a -- 42.2 42.2 42.7 41.6 -- -- 0.0 2.0 E 0.00 29.488
02/10/2005 2:30 a -- 41.8 41.8 42.2 41.4 -- -- 0.0 0.0 --- 0.00 29.469
02/10/2005 3:00 a -- 41.9 41.9 42.5 41.4 -- -- 0.0 0.0 --- 0.00 29.453
02/10/2005 3:30 a -- 41.4 41.4 42.1 41.0 -- -- 0.0 0.0 --- 0.00 29.449
02/10/2005 4:00 a -- 42.0 42.0 42.3 41.5 -- -- 0.0 0.0 --- 0.02 29.449
02/10/2005 4:30 a -- 41.9 41.9 42.1 41.6 -- -- 0.0 0.0 --- 0.07 29.430
02/10/2005 5:00 a -- 41.5 41.5 42.0 41.1 -- -- 0.0 0.0 --- 0.01 29.428
02/10/2005 5:30 a -- 41.4 41.4 41.8 41.0 -- -- 0.0 0.0 --- 0.01 29.432
02/10/2005 6:00 a -- 41.6 41.6 41.8 41.3 -- -- 0.0 0.0 --- 0.01 29.430
02/10/2005 6:30 a -- 41.7 41.7 42.1 41.3 -- -- 0.0 1.0 E 0.02 29.388
02/10/2005 7:00 a -- 41.5 41.5 42.2 40.8 -- -- 0.0 1.0 --- 0.00 29.427
02/10/2005 7:30 a -- 41.5 41.5 42.1 41.1 -- -- 0.0 0.0 --- 0.03 29.413
02/10/2005 8:00 a -- 42.4 42.4 43.1 42.1 -- -- 0.0 3.0 E 0.00 29.403
02/10/2005 8:30 a -- 43.3 43.3 43.5 43.1 -- -- 1.0 6.0 SE 0.00 29.433
02/10/2005 9:00 a -- 43.4 43.4 43.8 42.8 -- -- 1.0 7.0 SE 0.00 29.436
02/10/2005 9:30 a -- 42.8 42.8 43.2 42.4 -- -- 2.0 9.0 SE 0.00 29.432
02/10/2005 10:00 a -- 42.6 42.6 43.2 42.0 -- -- 2.0 9.0 SE 0.00 29.413
02/10/2005 10:30 a -- 43.0 43.0 43.9 42.1 -- -- 2.0 9.0 SE 0.00 29.413
02/10/2005 11:00 a -- 42.6 42.6 43.4 41.6 -- -- 4.0 13.0 SE 0.00 29.417
02/10/2005 11:30 a -- 43.8 43.8 44.6 42.6 -- -- 4.0 13.0 SE 0.00 29.410
02/10/2005 12:00 p -- 42.7 40.0 43.9 41.7 -- -- 5.0 14.0 SE 0.01 29.407
02/10/2005 12:30 p -- 42.3 42.3 42.9 41.7 -- -- 4.0 13.0 SE 0.00 29.397
02/10/2005 1:00 p -- 41.5 41.5 42.1 40.6 -- -- 4.0 15.0 SE 0.00 29.397
02/10/2005 1:30 p -- 42.4 42.4 43.3 41.7 -- -- 4.0 11.0 SE 0.00 29.391
02/10/2005 2:00 p -- 41.6 41.6 42.4 40.9 -- -- 4.0 16.0 SE 0.00 29.397
02/10/2005 2:30 p -- 40.8 38.0 42.0 40.0 -- -- 5.0 16.0 SE 0.00 29.397
02/10/2005 3:00 p -- 40.2 40.2 40.7 39.5 -- -- 4.0 15.0 SE 0.00 29.404
02/10/2005 3:30 p -- 39.2 39.2 40.1 38.8 -- -- 4.0 11.0 SE 0.00 29.408
02/10/2005 4:00 p -- 38.6 38.6 39.4 38.2 -- -- 4.0 15.0 SE 0.00 29.418
02/10/2005 4:30 p -- 37.4 37.4 38.6 36.8 -- -- 4.0 15.0 SE 0.00 29.426
02/10/2005 5:00 p -- 36.5 33.5 36.9 36.0 -- -- 5.0 23.0 SE 0.00 29.431
02/10/2005 5:30 p -- 35.6 35.6 36.0 35.2 -- -- 3.0 13.0 SE 0.00 29.433
02/10/2005 6:00 p -- 35.0 35.0 35.4 34.4 -- -- 4.0 14.0 SSE 0.00 29.448
02/10/2005 6:30 p -- 34.7 34.7 35.1 34.3 -- -- 4.0 12.0 SE 0.00 29.453
02/10/2005 7:00 p -- 34.2 34.2 34.8 33.8 -- -- 3.0 14.0 SE 0.00 29.462
02/10/2005 7:30 p -- 33.8 33.8 34.1 33.6 -- -- 3.0 12.0 SE 0.00 29.463
02/10/2005 8:00 p -- 33.5 33.5 33.9 33.2 -- -- 4.0 15.0 SE 0.00 29.461
02/10/2005 8:30 p -- 32.7 32.7 33.5 32.4 -- -- 4.0 13.0 SE 0.00 29.465
02/10/2005 9:00 p -- 32.3 29.1 32.7 32.0 -- -- 5.0 25.0 SSE 0.00 29.467
02/10/2005 9:30 p -- 31.9 31.9 32.6 31.6 -- -- 3.0 12.0 SE 0.00 29.476
02/10/2005 10:00 p -- 31.9 31.9 32.1 31.7 -- -- 3.0 12.0 SE 0.00 29.489
02/10/2005 10:30 p -- 32.0 32.0 32.3 31.8 -- -- 4.0 12.0 SE 0.00 29.490
02/10/2005 11:00 p -- 31.9 31.9 32.2 31.6 -- -- 4.0 12.0 SE 0.00 29.497
02/10/2005 11:30 p -- 31.5 31.5 31.8 31.4 -- -- 3.0 11.0 SSE 0.00 29.498
02/11/2005 12:00 a -- 31.5 31.5 31.8 31.3 -- -- 4.0 15.0 SSE 0.00 29.501
02/11/2005 12:30 a -- 31.4 31.4 31.7 31.2 -- -- 4.0 12.0 SE 0.00 29.502
02/11/2005 1:00 a -- 31.4 31.4 31.8 31.1 -- -- 3.0 10.0 SE 0.00 29.507
02/11/2005 1:30 a -- 31.6 31.6 31.9 31.3 -- -- 3.0 13.0 SE 0.00 29.515
02/11/2005 2:00 a -- 31.7 31.7 31.9 31.4 -- -- 4.0 16.0 SE 0.00 29.521
02/11/2005 2:30 a -- 31.5 31.5 31.8 31.3 -- -- 3.0 12.0 SE 0.00 29.525
02/11/2005 3:00 a -- 31.4 31.4 31.7 31.2 -- -- 3.0 13.0 SE 0.00 29.518
02/11/2005 3:30 a -- 31.4 31.4 31.8 31.2 -- -- 3.0 17.0 SE 0.00 29.507
02/11/2005 4:00 a -- 31.2 27.9 31.5 30.9 -- -- 5.0 19.0 SSE 0.00 29.527
02/11/2005 4:30 a -- 30.7 30.7 31.0 30.3 -- -- 4.0 15.0 SE 0.00 29.541
02/11/2005 5:00 a -- 30.7 30.7 31.0 30.3 -- -- 4.0 12.0 SE 0.00 29.558
02/11/2005 5:30 a -- 30.4 30.4 30.9 29.9 -- -- 3.0 11.0 SE 0.00 29.566
02/11/2005 6:00 a -- 30.2 30.2 30.6 29.9 -- -- 3.0 13.0 SE 0.00 29.573
02/11/2005 6:30 a -- 30.1 30.1 30.7 29.5 -- -- 3.0 13.0 SE 0.00 29.581
02/11/2005 7:00 a -- 29.5 29.5 30.0 29.1 -- -- 3.0 11.0 SE 0.00 29.590
02/11/2005 7:30 a -- 29.8 29.8 30.1 29.5 -- -- 3.0 16.0 SE 0.00 29.604
02/11/2005 8:00 a -- 30.5 30.5 31.1 30.1 -- -- 3.0 13.0 SE 0.00 29.616
02/11/2005 8:30 a -- 31.7 31.7 32.4 30.9 -- -- 3.0 10.0 SE 0.00 29.607
02/11/2005 9:00 a -- 32.6 32.6 33.2 31.8 -- -- 4.0 11.0 SE 0.00 29.613
02/11/2005 9:30 a -- 33.6 33.6 34.8 32.7 -- -- 4.0 14.0 SE 0.00 29.609
02/11/2005 10:00 a -- 34.8 34.8 35.5 34.1 -- -- 3.0 10.0 SE 0.00 29.602
02/11/2005 10:30 a -- 36.1 36.1 37.2 35.0 -- -- 3.0 10.0 SE 0.00 29.601
02/11/2005 11:00 a -- 37.3 37.3 38.1 36.5 -- -- 3.0 12.0 SE 0.00 29.598
02/11/2005 11:30 a -- 38.5 38.5 39.7 37.5 -- -- 4.0 13.0 SE 0.00 29.587
02/11/2005 12:00 p -- 39.4 39.4 40.7 38.9 -- -- 4.0 13.0 SE 0.00 29.573
02/11/2005 12:30 p -- 40.5 40.5 42.1 39.5 -- -- 3.0 13.0 SE 0.00 29.562
02/11/2005 1:00 p -- 40.6 40.6 41.9 39.8 -- -- 4.0 15.0 SE 0.00 29.553
02/11/2005 1:30 p -- 40.8 40.8 41.4 40.1 -- -- 4.0 16.0 SE 0.00 29.551
02/11/2005 2:00 p -- 40.7 37.9 41.5 39.8 -- -- 5.0 16.0 SE 0.00 29.548
02/11/2005 2:30 p -- 40.8 40.8 41.7 40.2 -- -- 4.0 16.0 SE 0.00 29.545
02/11/2005 3:00 p -- 40.7 40.7 41.7 40.1 -- -- 4.0 13.0 SE 0.00 29.554
02/11/2005 3:30 p -- 40.0 40.0 40.4 39.7 -- -- 3.0 14.0 SE 0.00 29.554
02/11/2005 4:00 p -- 39.5 39.5 40.0 39.1 -- -- 4.0 12.0 SE 0.00 29.566
02/11/2005 4:30 p -- 39.0 39.0 39.5 38.4 -- -- 3.0 10.0 SE 0.00 29.572
02/11/2005 5:00 p -- 38.0 38.0 38.5 37.4 -- -- 3.0 7.0 SE 0.00 29.581
02/11/2005 5:30 p -- 37.0 37.0 37.7 36.1 -- -- 2.0 6.0 SE 0.00 29.584
02/11/2005 6:00 p -- 36.0 36.0 36.5 35.5 -- -- 1.0 6.0 SE 0.00 29.595
02/11/2005 6:30 p -- 35.8 35.8 36.1 35.4 -- -- 1.0 5.0 SE 0.00 29.598
02/11/2005 7:00 p -- 35.7 35.7 36.2 35.2 -- -- 2.0 7.0 SE 0.00 29.602
02/11/2005 7:30 p -- 36.0 36.0 36.3 35.6 -- -- 2.0 7.0 SE 0.00 29.599
02/11/2005 8:00 p -- 35.3 35.3 36.0 34.5 -- -- 1.0 5.0 ESE 0.00 29.602
02/11/2005 8:30 p -- 35.0 35.0 35.7 33.7 -- -- 1.0 5.0 SE 0.00 29.596
02/11/2005 9:00 p -- 33.0 33.0 33.8 32.5 -- -- 0.0 2.0 SE 0.00 29.591
02/11/2005 9:30 p -- 32.5 32.5 32.7 32.3 -- -- 0.0 2.0 SSE 0.00 29.597
02/11/2005 10:00 p -- 32.5 32.5 32.9 31.7 -- -- 0.0 2.0 SSE 0.00 29.603
02/11/2005 10:30 p -- 32.2 32.2 32.8 31.7 -- -- 0.0 4.0 SSE 0.00 29.608
02/11/2005 11:00 p -- 32.8 32.8 33.2 32.3 -- -- 2.0 9.0 SE 0.00 29.608
02/11/2005 11:30 p -- 32.0 32.0 32.6 31.6 -- -- 2.0 8.0 SE 0.00 29.613
02/12/2005 12:00 a -- 31.1 31.1 31.9 30.4 -- -- 1.0 4.0 SE 0.00 29.624
02/12/2005 12:30 a -- 30.8 30.8 31.0 30.4 -- -- 2.0 8.0 SE 0.00 29.629
02/12/2005 1:00 a -- 30.3 30.3 30.9 29.8 -- -- 1.0 7.0 SE 0.00 29.636
02/12/2005 1:30 a -- 29.7 29.7 30.2 29.3 -- -- 1.0 4.0 SE 0.00 29.636
02/12/2005 2:00 a -- 29.1 29.1 29.5 28.8 -- -- 0.0 2.0 SE 0.00 29.624
02/12/2005 2:30 a -- 28.7 28.7 29.0 28.5 -- -- 0.0 1.0 E 0.00 29.617
02/12/2005 3:00 a -- 28.5 28.5 29.0 28.2 -- -- 0.0 3.0 SE 0.00 29.616
02/12/2005 3:30 a -- 28.2 28.2 28.5 28.0 -- -- 0.0 2.0 SE 0.00 29.621
02/12/2005 4:00 a -- 28.8 28.8 29.0 28.3 -- -- 0.0 3.0 SE 0.00 29.613
02/12/2005 4:30 a -- 29.0 29.0 29.2 28.9 -- -- 0.0 3.0 SE 0.00 29.616
02/12/2005 5:00 a -- 29.3 29.3 29.6 29.0 -- -- 0.0 3.0 SSE 0.00 29.621
02/12/2005 5:30 a -- 29.6 29.6 29.8 29.4 -- -- 0.0 2.0 SSW 0.00 29.626
02/12/2005 6:00 a -- 30.2 30.2 30.7 29.8 -- -- 0.0 4.0 SE 0.00 29.617
02/12/2005 6:30 a -- 30.9 30.9 31.1 30.6 -- -- 1.0 3.0 SE 0.00 29.614
02/12/2005 7:00 a -- 31.1 31.1 31.3 31.0 -- -- 0.0 4.0 SE 0.00 29.628
02/12/2005 7:30 a -- 31.5 31.5 31.7 31.3 -- -- 0.0 3.0 S 0.00 29.627
02/12/2005 8:00 a -- 31.8 31.8 32.1 31.6 -- -- 0.0 4.0 SSE 0.00 29.634
02/12/2005 8:30 a -- 33.3 33.3 35.1 31.5 -- -- 0.0 3.0 SSE 0.00 29.628
02/12/2005 9:00 a -- 36.6 36.6 38.1 34.9 -- -- 1.0 4.0 SE 0.00 29.626
02/12/2005 9:30 a -- 37.3 37.3 40.2 36.1 -- -- 1.0 6.0 SE 0.00 29.617
02/12/2005 10:00 a -- 39.3 39.3 40.3 37.9 -- -- 1.0 5.0 SE 0.00 29.608
02/12/2005 10:30 a -- 38.3 38.3 40.5 37.2 -- -- 1.0 6.0 SE 0.00 29.597
02/12/2005 11:00 a -- 40.7 40.7 41.9 39.6 -- -- 1.0 7.0 S 0.00 29.592
02/12/2005 11:30 a -- 41.3 41.3 42.5 39.7 -- -- 1.0 6.0 SE 0.00 29.590
02/12/2005 12:00 p -- 41.4 41.4 42.3 40.7 -- -- 1.0 4.0 SSE 0.00 29.571
02/12/2005 12:30 p -- 42.1 42.1 43.3 40.9 -- -- 1.0 6.0 SE 0.00 29.567
02/12/2005 1:00 p -- 43.2 43.2 44.3 42.2 -- -- 1.0 7.0 SE 0.00 29.560
02/12/2005 1:30 p -- 42.4 42.4 43.2 41.7 -- -- 1.0 9.0 SE 0.00 29.559
02/12/2005 2:00 p -- 42.7 42.7 43.2 42.4 -- -- 1.0 7.0 SE 0.00 29.557
02/12/2005 2:30 p -- 43.5 43.5 44.2 42.5 -- -- 2.0 8.0 SE 0.00 29.565
02/12/2005 3:00 p -- 42.4 42.4 42.9 41.9 -- -- 2.0 9.0 SE 0.00 29.567
02/12/2005 3:30 p -- 42.6 42.6 43.2 41.6 -- -- 1.0 6.0 SE 0.00 29.571
02/12/2005 4:00 p -- 41.4 41.4 42.1 40.4 -- -- 1.0 5.0 SE 0.00 29.584
02/12/2005 4:30 p -- 39.8 39.8 40.5 39.4 -- -- 1.0 6.0 SE 0.00 29.595
02/12/2005 5:00 p -- 39.5 39.5 39.7 39.1 -- -- 0.0 4.0 ESE 0.00 29.604
02/12/2005 5:30 p -- 38.9 38.9 39.5 38.4 -- -- 0.0 3.0 NW 0.00 29.615
02/12/2005 6:00 p -- 38.4 38.4 38.9 37.3 -- -- 0.0 1.0 NW 0.00 29.626
02/12/2005 6:30 p -- 36.3 36.3 37.3 35.6 -- -- 0.0 0.0 --- 0.00 29.640
02/12/2005 7:00 p -- 35.1 35.1 35.6 34.5 -- -- 0.0 0.0 --- 0.00 29.652
02/12/2005 7:30 p -- 34.8 34.8 35.4 34.4 -- -- 0.0 0.0 --- 0.00 29.669
02/12/2005 8:00 p -- 34.9 34.9 35.5 34.4 -- -- 0.0 0.0 --- 0.00 29.680
02/12/2005 8:30 p -- 33.8 33.8 34.5 33.0 -- -- 0.0 0.0 --- 0.00 29.693
02/12/2005 9:00 p -- 32.1 32.1 33.0 31.6 -- -- 0.0 0.0 --- 0.00 29.711
02/12/2005 9:30 p -- 31.3 31.3 31.9 30.8 -- -- 0.0 0.0 --- 0.00 29.714
02/12/2005 10:00 p -- 30.9 30.9 31.5 30.3 -- -- 0.0 0.0 --- 0.00 29.715
02/12/2005 10:30 p -- 30.4 30.4 31.2 29.6 -- -- 0.0 0.0 --- 0.00 29.727
02/12/2005 11:00 p -- 29.4 29.4 29.8 28.9 -- -- 0.0 0.0 --- 0.00 29.729
02/12/2005 11:30 p -- 30.1 30.1 31.0 29.4 -- -- 0.0 0.0 --- 0.00 29.729
02/13/2005 12:00 a -- 30.8 30.8 31.1 30.5 -- -- 0.0 0.0 --- 0.00 29.733
02/13/2005 12:30 a -- 30.4 30.4 30.9 29.7 -- -- 0.0 0.0 --- 0.00 29.734
02/13/2005 1:00 a -- 29.4 29.4 30.0 28.8 -- -- 0.0 0.0 --- 0.00 29.749
02/13/2005 1:30 a -- 29.7 29.7 30.4 29.1 -- -- 0.0 0.0 --- 0.00 29.760
02/13/2005 2:00 a -- 29.5 29.5 30.4 28.9 -- -- 0.0 2.0 NW 0.00 29.777
02/13/2005 2:30 a -- 29.1 29.1 30.2 28.6 -- -- 0.0 0.0 --- 0.00 29.784
02/13/2005 3:00 a -- 29.0 29.0 30.6 27.9 -- -- 0.0 2.0 WNW 0.00 29.788
02/13/2005 3:30 a -- 30.6 30.6 31.9 29.8 -- -- 0.0 3.0 WNW 0.00 29.794
02/13/2005 4:00 a -- 31.6 31.6 32.5 31.0 -- -- 0.0 2.0 WNW 0.00 29.808
02/13/2005 4:30 a -- 31.6 31.6 32.8 30.8 -- -- 0.0 6.0 WNW 0.00 29.837
02/13/2005 5:00 a -- 32.6 32.6 33.2 31.9 -- -- 1.0 6.0 SE 0.00 29.858
02/13/2005 5:30 a -- 31.9 31.9 33.0 30.7 -- -- 0.0 5.0 SE 0.00 29.881
02/13/2005 6:00 a -- 29.1 29.1 30.6 27.8 -- -- 0.0 0.0 --- 0.00 29.908
02/13/2005 6:30 a -- 27.7 27.7 28.1 27.4 -- -- 0.0 2.0 S 0.00 29.922
02/13/2005 7:00 a -- 27.3 27.3 27.6 26.8 -- -- 0.0 0.0 --- 0.00 29.938
02/13/2005 7:30 a -- 28.3 28.3 30.4 26.9 -- -- 0.0 2.0 S 0.00 29.963
02/13/2005 8:00 a -- 32.8 32.8 34.4 30.1 -- -- 2.0 9.0 SE 0.00 29.979
02/13/2005 8:30 a -- 35.0 35.0 35.9 34.2 -- -- 3.0 8.0 SE 0.00 29.997
02/13/2005 9:00 a -- 35.6 35.6 36.3 35.1 -- -- 3.0 9.0 SSE 0.00 30.015
02/13/2005 9:30 a -- 36.0 36.0 36.7 35.5 -- -- 2.0 10.0 S 0.00 30.036
02/13/2005 10:00 a -- 36.1 36.1 36.6 35.7 -- -- 3.0 10.0 SE 0.00 30.052
02/13/2005 10:30 a -- 36.6 36.6 37.3 36.1 -- -- 3.0 8.0 SE 0.00 30.069
02/13/2005 11:00 a -- 38.0 38.0 38.7 36.9 -- -- 3.0 8.0 SE 0.00 30.070
02/13/2005 11:30 a -- 39.7 39.7 40.7 38.7 -- -- 3.0 7.0 SE 0.00 30.071
02/13/2005 12:00 p -- 41.0 41.0 41.8 40.0 -- -- 3.0 9.0 SE 0.00 30.067
02/13/2005 12:30 p -- 41.4 41.4 42.0 40.7 -- -- 3.0 10.0 SE 0.00 30.070
02/13/2005 1:00 p -- 42.0 42.0 42.7 41.3 -- -- 3.0 9.0 SE 0.00 30.073
02/13/2005 1:30 p -- 42.6 42.6 44.0 41.4 -- -- 2.0 10.0 SE 0.00 30.079
02/13/2005 2:00 p -- 43.1 43.1 44.0 42.1 -- -- 2.0 7.0 SE 0.00 30.078
02/13/2005 2:30 p -- 43.1 43.1 43.9 42.2 -- -- 2.0 9.0 SE 0.00 30.078
02/13/2005 3:00 p -- 42.7 42.7 43.4 42.0 -- -- 2.0 7.0 SE 0.00 30.080
02/13/2005 3:30 p -- 42.7 42.7 43.2 42.3 -- -- 2.0 6.0 SE 0.00 30.091
02/13/2005 4:00 p -- 42.0 42.0 42.8 41.1 -- -- 1.0 5.0 SSW 0.00 30.108
02/13/2005 4:30 p -- 41.2 41.2 41.4 41.0 -- -- 0.0 3.0 SSE 0.00 30.125
02/13/2005 5:00 p -- 40.5 40.5 41.2 39.6 -- -- 0.0 3.0 SSE 0.00 30.148
02/13/2005 5:30 p -- 38.9 38.9 39.7 38.2 -- -- 0.0 0.0 --- 0.00 30.139
02/13/2005 6:00 p -- 37.5 37.5 38.3 36.0 -- -- 0.0 0.0 --- 0.00 30.162
02/13/2005 6:30 p -- 35.0 35.0 36.0 33.8 -- -- 0.0 0.0 --- 0.00 30.172
02/13/2005 7:00 p -- 35.0 35.0 36.0 33.6 -- -- 0.0 0.0 --- 0.00 30.183
02/13/2005 7:30 p -- 33.3 33.3 34.0 32.6 -- -- 0.0 0.0 --- 0.00 30.203
02/13/2005 8:00 p -- 33.1 33.1 33.5 32.5 -- -- 0.0 0.0 --- 0.00 30.216
02/13/2005 8:30 p -- 32.6 32.6 33.3 31.8 -- -- 0.0 0.0 --- 0.00 30.235
02/13/2005 9:00 p -- 32.3 32.3 32.7 32.0 -- -- 0.0 0.0 --- 0.00 30.250
02/13/2005 9:30 p -- 31.9 31.9 32.3 31.6 -- -- 0.0 0.0 --- 0.00 30.248
02/13/2005 10:00 p -- 32.2 32.2 33.7 31.5 -- -- 0.0 0.0 --- 0.00 30.242
02/13/2005 10:30 p -- 33.4 33.4 35.5 31.9 -- -- 0.0 0.0 --- 0.00 30.251
02/13/2005 11:00 p -- 32.0 32.0 32.4 31.6 -- -- 0.0 0.0 --- 0.00 30.242
02/13/2005 11:30 p -- 31.9 31.9 32.4 31.5 -- -- 0.0 0.0 --- 0.00 30.250
02/14/2005 12:00 a -- 31.8 31.8 32.2 31.5 -- -- 0.0 0.0 --- 0.00 30.258
02/14/2005 12:30 a -- 31.5 31.5 32.2 31.1 -- -- 0.0 0.0 --- 0.00 30.270
02/14/2005 1:00 a -- 31.4 31.4 32.0 30.9 -- -- 0.0 0.0 --- 0.00 30.267
02/14/2005 1:30 a -- 31.7 31.7 32.0 31.3 -- -- 0.0 0.0 --- 0.00 30.262
02/14/2005 2:00 a -- 31.7 31.7 32.1 31.3 -- -- 0.0 0.0 --- 0.00 30.263
02/14/2005 2:30 a -- 32.6 32.6 33.0 32.0 -- -- 0.0 0.0 --- 0.00 30.255
02/14/2005 3:00 a -- 32.9 32.9 33.1 32.7 -- -- 0.0 1.0 SE 0.00 30.251
02/14/2005 3:30 a -- 32.8 32.8 33.0 32.5 -- -- 0.0 3.0 N 0.00 30.253
02/14/2005 4:00 a -- 32.4 32.4 32.5 32.2 -- -- 0.0 4.0 N 0.00 30.248
02/14/2005 4:30 a -- 32.2 32.2 32.5 31.9 -- -- 0.0 2.0 N 0.00 30.253
02/14/2005 5:00 a -- 33.0 33.0 33.3 32.5 -- -- 0.0 2.0 N 0.00 30.255
02/14/2005 5:30 a -- 33.3 33.3 33.5 33.2 -- -- 0.0 3.0 N 0.00 30.259
02/14/2005 6:00 a -- 33.5 33.5 33.8 33.3 -- -- 1.0 3.0 NW 0.00 30.255
02/14/2005 6:30 a -- 33.9 33.9 34.1 33.6 -- -- 0.0 2.0 NW 0.00 30.258
02/14/2005 7:00 a -- 34.3 34.3 34.5 34.1 -- -- 0.0 1.0 NW 0.00 30.266
02/14/2005 7:30 a -- 34.8 34.8 35.1 34.6 -- -- 0.0 2.0 NNW 0.00 30.268
02/14/2005 8:00 a -- 35.6 35.6 36.1 35.1 -- -- 0.0 3.0 N 0.00 30.268
02/14/2005 8:30 a -- 36.7 36.7 37.3 36.1 -- -- 0.0 3.0 N 0.00 30.262
02/14/2005 9:00 a -- 38.1 38.1 39.1 37.3 -- -- 1.0 5.0 N 0.00 30.257
02/14/2005 9:30 a -- 39.5 39.5 40.2 39.1 -- -- 1.0 5.0 NNW 0.00 30.243
02/14/2005 10:00 a -- 40.2 40.2 40.4 39.9 -- -- 1.0 5.0 N 0.00 30.241
02/14/2005 10:30 a -- 39.2 39.2 40.1 37.9 -- -- 1.0 6.0 N 0.00 30.238
02/14/2005 11:00 a -- 37.7 37.7 38.2 37.4 -- -- 1.0 4.0 N 0.02 30.228
02/14/2005 11:30 a -- 37.6 37.6 37.7 37.3 -- -- 1.0 5.0 N 0.01 30.213
02/14/2005 12:00 p -- 38.4 38.4 38.9 37.6 -- -- 1.0 5.0 N 0.01 30.189
02/14/2005 12:30 p -- 39.1 39.1 39.5 38.6 -- -- 1.0 5.0 N 0.00 30.173
02/14/2005 1:00 p -- 39.3 39.3 39.5 39.1 -- -- 1.0 4.0 N 0.02 30.161
02/14/2005 1:30 p -- 39.4 39.4 39.8 39.2 -- -- 1.0 5.0 N 0.03 30.136
02/14/2005 2:00 p -- 39.5 39.5 39.7 39.2 -- -- 0.0 3.0 N 0.04 30.121
02/14/2005 2:30 p -- 39.7 39.7 40.2 39.4 -- -- 1.0 4.0 N 0.03 30.085
02/14/2005 3:00 p -- 40.2 40.2 40.5 39.9 -- -- 1.0 5.0 N 0.02 30.070
02/14/2005 3:30 p -- 40.7 40.7 40.8 40.5 -- -- 1.0 6.0 N 0.03 30.065
02/14/2005 4:00 p -- 41.1 41.1 41.4 40.7 -- -- 1.0 4.0 N 0.04 30.044
02/14/2005 4:30 p -- 42.0 42.0 42.7 41.4 -- -- 1.0 6.0 N 0.04 30.029
02/14/2005 5:00 p -- 42.8 42.8 43.0 42.6 -- -- 1.0 4.0 N 0.04 29.997
02/14/2005 5:30 p -- 43.3 43.3 43.8 42.9 -- -- 1.0 5.0 NNW 0.02 29.977
02/14/2005 6:00 p -- 44.2 44.2 44.7 43.6 -- -- 1.0 5.0 N 0.06 29.963
02/14/2005 6:30 p -- 45.0 45.0 45.5 44.6 -- -- 1.0 6.0 N 0.04 29.971
02/14/2005 7:00 p -- 45.4 45.4 45.6 45.2 -- -- 1.0 8.0 N 0.06 29.953
02/14/2005 7:30 p -- 46.0 46.0 46.5 45.6 -- -- 3.0 8.0 N 0.00 29.915
02/14/2005 8:00 p -- 46.6 46.6 46.8 46.4 -- -- 2.0 11.0 N 0.03 29.885
02/14/2005 8:30 p -- 46.9 46.9 47.2 46.6 -- -- 3.0 12.0 N 0.02 29.857
02/14/2005 9:00 p -- 47.3 47.3 47.5 47.1 -- -- 3.0 10.0 N 0.01 29.837
02/14/2005 9:30 p -- 47.7 47.7 48.1 47.5 -- -- 3.0 11.0 N 0.00 29.821
02/14/2005 10:00 p -- 48.3 48.3 48.7 48.0 -- -- 3.0 12.0 N 0.01 29.796
02/14/2005 10:30 p -- 49.2 49.2 49.8 48.4 -- -- 3.0 10.0 N 0.02 29.768
02/14/2005 11:00 p -- 49.3 49.3 49.7 48.7 -- -- 3.0 8.0 N 0.04 29.741
02/14/2005 11:30 p -- 48.6 48.6 48.8 48.4 -- -- 2.0 7.0 N 0.03 29.739
02/15/2005 12:00 a -- 48.4 48.4 48.6 48.3 -- -- 1.0 5.0 N 0.08 29.745
02/15/2005 12:30 a -- 48.7 48.7 49.0 48.3 -- -- 0.0 3.0 NNE 0.00 29.734
02/15/2005 1:00 a -- 49.1 49.1 49.6 48.7 -- -- 0.0 1.0 NE 0.00 29.744
02/15/2005 1:30 a -- 49.1 49.1 49.5 48.9 -- -- 0.0 0.0 --- 0.00 29.748
02/15/2005 2:00 a -- 49.2 49.2 49.5 49.1 -- -- 0.0 1.0 --- 0.00 29.751
02/15/2005 2:30 a -- 49.2 49.2 49.5 49.1 -- -- 0.0 3.0 S 0.00 29.765
02/15/2005 3:00 a -- 49.5 49.5 49.7 49.2 -- -- 0.0 3.0 S 0.00 29.780
02/15/2005 3:30 a -- 49.0 49.0 49.5 48.3 -- -- 0.0 4.0 S 0.00 29.799
02/15/2005 4:00 a -- 48.0 48.0 48.7 47.3 -- -- 0.0 3.0 SE 0.00 29.819
02/15/2005 4:30 a -- 46.1 46.1 47.3 45.0 -- -- 0.0 2.0 SE 0.00 29.842
02/15/2005 5:00 a -- 45.3 45.3 45.9 44.9 -- -- 0.0 2.0 SE 0.00 29.859
02/15/2005 5:30 a -- 44.8 44.8 45.3 44.2 -- -- 0.0 2.0 SE 0.00 29.874
02/15/2005 6:00 a -- 43.7 43.7 44.3 43.0 -- -- 0.0 2.0 SE 0.00 29.892
02/15/2005 6:30 a -- 43.4 43.4 43.8 42.9 -- -- 0.0 1.0 --- 0.00 29.911
02/15/2005 7:00 a -- 42.1 42.1 43.3 40.5 -- -- 0.0 0.0 --- 0.00 29.938
02/15/2005 7:30 a -- 41.3 41.3 42.7 40.3 -- -- 0.0 2.0 --- 0.00 29.965
02/15/2005 8:00 a -- 44.1 44.1 45.5 42.7 -- -- 0.0 2.0 SE 0.00 29.978
02/15/2005 8:30 a -- 46.6 46.6 47.9 45.5 -- -- 0.0 4.0 SE 0.00 29.984
02/15/2005 9:00 a -- 48.6 48.6 49.3 47.7 -- -- 1.0 8.0 SE 0.00 29.995
02/15/2005 9:30 a -- 49.9 49.9 50.8 49.0 -- -- 1.0 9.0 SE 0.00 29.995
02/15/2005 10:00 a -- 50.6 50.6 51.1 50.1 -- -- 2.0 9.0 SE 0.00 29.987
02/15/2005 10:30 a -- 51.1 51.1 51.9 50.6 -- -- 3.0 10.0 SE 0.00 30.002
02/15/2005 11:00 a -- 52.2 52.2 52.9 51.6 -- -- 3.0 10.0 SE 0.00 29.987
02/15/2005 11:30 a -- 53.0 53.0 53.9 52.3 -- -- 2.0 8.0 SE 0.00 29.983
02/15/2005 12:00 p -- 54.6 54.6 56.0 53.7 -- -- 2.0 7.0 SE 0.00 29.982
02/15/2005 12:30 p -- 56.6 56.6 57.5 55.8 -- -- 1.0 5.0 SE 0.00 29.969
02/15/2005 1:00 p -- 56.7 56.7 57.9 55.3 -- -- 1.0 7.0 SE 0.00 29.963
02/15/2005 1:30 p -- 56.8 56.8 57.6 56.1 -- -- 1.0 6.0 SE 0.00 29.959
02/15/2005 2:00 p -- 56.3 56.3 56.9 55.4 -- -- 1.0 5.0 SE 0.00 29.953
02/15/2005 2:30 p -- 56.4 56.4 56.7 55.9 -- -- 1.0 4.0 SE 0.00 29.951
02/15/2005 3:00 p -- 56.4 56.4 56.8 56.0 -- -- 0.0 4.0 SE 0.00 29.947
02/15/2005 3:30 p -- 55.9 55.9 56.6 55.5 -- -- 0.0 4.0 SE 0.00 29.935
02/15/2005 4:00 p -- 54.9 54.9 55.5 54.2 -- -- 0.0 3.0 E 0.00 29.940
02/15/2005 4:30 p -- 54.0 54.0 54.4 53.4 -- -- 0.0 4.0 E 0.00 29.933
02/15/2005 5:00 p -- 52.5 52.5 53.5 51.9 -- -- 0.0 0.0 --- 0.00 29.938
02/15/2005 5:30 p -- 51.0 51.0 52.0 49.7 -- -- 0.0 0.0 --- 0.00 29.938
02/15/2005 6:00 p -- 48.8 48.8 49.8 47.0 -- -- 0.0 0.0 --- 0.00 29.938
02/15/2005 6:30 p -- 47.0 47.0 47.7 46.3 -- -- 0.0 0.0 --- 0.00 29.945
02/15/2005 7:00 p -- 45.2 45.2 46.3 43.7 -- -- 0.0 0.0 --- 0.00 29.948
02/15/2005 7:30 p -- 42.9 42.9 43.6 42.2 -- -- 0.0 0.0 --- 0.00 29.947
02/15/2005 8:00 p -- 42.0 42.0 42.7 41.5 -- -- 0.0 0.0 --- 0.00 29.942
02/15/2005 8:30 p -- 41.8 41.8 42.7 40.7 -- -- 0.0 0.0 --- 0.00 29.932
02/15/2005 9:00 p -- 40.7 40.7 42.1 39.9 -- -- 0.0 0.0 --- 0.00 29.932
02/15/2005 9:30 p -- 39.3 39.3 39.9 38.8 -- -- 0.0 0.0 --- 0.00 29.921
02/15/2005 10:00 p -- 39.4 39.4 39.9 38.8 -- -- 0.0 0.0 --- 0.00 29.912
02/15/2005 10:30 p -- 39.0 39.0 39.9 38.6 -- -- 0.0 0.0 --- 0.00 29.894
02/15/2005 11:00 p -- 38.7 38.7 39.1 38.1 -- -- 0.0 0.0 --- 0.00 29.888
02/15/2005 11:30 p -- 38.2 38.2 38.7 37.6 -- -- 0.0 0.0 --- 0.00 29.875
02/16/2005 12:00 a -- 37.4 37.4 37.7 37.0 -- -- 0.0 0.0 --- 0.00 29.865
02/16/2005 12:30 a -- 37.7 37.7 38.1 37.2 -- -- 0.0 0.0 --- 0.00 29.854
02/16/2005 1:00 a -- 37.2 37.2 37.8 36.9 -- -- 0.0 0.0 --- 0.00 29.850
02/16/2005 1:30 a -- 36.7 36.7 37.3 36.4 -- -- 0.0 0.0 --- 0.00 29.831
02/16/2005 2:00 a -- 36.5 36.5 36.8 36.0 -- -- 0.0 0.0 --- 0.00 29.816
02/16/2005 2:30 a -- 35.9 35.9 36.2 35.6 -- -- 0.0 0.0 --- 0.00 29.814
02/16/2005 3:00 a -- 35.3 35.3 35.7 34.9 -- -- 0.0 0.0 --- 0.00 29.803
02/16/2005 3:30 a -- 35.5 35.5 36.0 34.9 -- -- 0.0 0.0 --- 0.00 29.796
02/16/2005 4:00 a -- 35.0 35.0 35.3 34.8 -- -- 0.0 0.0 --- 0.00 29.782
02/16/2005 4:30 a -- 34.7 34.7 34.9 34.4 -- -- 0.0 0.0 --- 0.00 29.761
02/16/2005 5:00 a -- 34.6 34.6 34.8 34.4 -- -- 0.0 0.0 --- 0.00 29.749
02/16/2005 5:30 a -- 34.1 34.1 34.5 33.5 -- -- 0.0 0.0 --- 0.00 29.735
02/16/2005 6:00 a -- 33.4 33.4 33.5 33.1 -- -- 0.0 0.0 --- 0.00 29.725
02/16/2005 6:30 a -- 32.9 32.9 33.4 32.4 -- -- 0.0 0.0 --- 0.00 29.708
02/16/2005 7:00 a -- 33.4 33.4 34.2 32.9 -- -- 0.0 0.0 --- 0.00 29.699
02/16/2005 7:30 a -- 34.7 34.7 35.8 34.1 -- -- 0.0 0.0 --- 0.00 29.688
02/16/2005 8:00 a -- 37.6 37.6 39.7 35.7 -- -- 0.0 3.0 SE 0.00 29.679
02/16/2005 8:30 a -- 41.5 41.5 43.5 39.7 -- -- 0.0 0.0 --- 0.00 29.664
02/16/2005 9:00 a -- 44.8 44.8 46.7 43.4 -- -- 0.0 1.0 --- 0.00 29.637
02/16/2005 9:30 a -- 47.6 47.6 48.1 46.7 -- -- 0.0 0.0 --- 0.00 29.625
02/16/2005 10:00 a -- 48.7 48.7 52.7 46.8 -- -- 0.0 2.0 SE 0.00 29.599
02/16/2005 10:30 a -- 53.5 53.5 55.3 51.5 -- -- 0.0 2.0 NW 0.00 29.572
02/16/2005 11:00 a -- 55.7 55.7 56.4 54.9 -- -- 0.0 3.0 NW 0.00 29.550
02/16/2005 11:30 a -- 56.9 56.9 58.2 56.0 -- -- 0.0 2.0 SE 0.00 29.518
02/16/2005 12:00 p -- 58.6 58.6 59.3 57.3 -- -- 0.0 4.0 NNE 0.00 29.496
02/16/2005 12:30 p -- 59.4 59.4 61.9 58.1 -- -- 1.0 4.0 N 0.00 29.472
02/16/2005 1:00 p -- 61.6 61.6 63.2 58.6 -- -- 0.0 4.0 SE 0.00 29.464
02/16/2005 1:30 p -- 60.4 60.4 62.9 58.9 -- -- 0.0 5.0 N 0.00 29.457
02/16/2005 2:00 p -- 58.6 58.6 59.0 57.8 -- -- 0.0 4.0 SE 0.00 29.452
02/16/2005 2:30 p -- 56.9 56.9 57.8 56.1 -- -- 1.0 5.0 SE 0.01 29.460
02/16/2005 3:00 p -- 53.4 53.4 56.0 51.9 -- -- 2.0 7.0 SE 0.06 29.489
02/16/2005 3:30 p -- 50.6 50.6 51.9 49.9 -- -- 3.0 10.0 SE 0.02 29.512
02/16/2005 4:00 p -- 48.2 48.2 49.8 45.6 -- -- 3.0 16.0 SE 0.03 29.557
02/16/2005 4:30 p -- 41.4 41.4 45.6 38.7 -- -- 4.0 16.0 S 0.03 29.584
02/16/2005 5:00 p -- 39.1 39.1 39.3 38.8 -- -- 3.0 12.0 SE 0.00 29.608
02/16/2005 5:30 p -- 38.9 38.9 39.1 38.6 -- -- 2.0 9.0 SE 0.00 29.623
02/16/2005 6:00 p -- 38.7 38.7 38.9 38.4 -- -- 2.0 8.0 SE 0.00 29.649
02/16/2005 6:30 p -- 38.4 38.4 38.7 38.2 -- -- 2.0 9.0 SE 0.01 29.666
02/16/2005 7:00 p -- 38.2 38.2 38.6 37.9 -- -- 3.0 10.0 SE 0.00 29.676
02/16/2005 7:30 p -- 37.5 37.5 38.1 36.9 -- -- 1.0 8.0 SE 0.00 29.688
02/16/2005 8:00 p -- 37.3 37.3 37.8 36.9 -- -- 2.0 11.0 SE 0.00 29.701
02/16/2005 8:30 p -- 37.2 37.2 37.8 36.8 -- -- 2.0 10.0 SE 0.00 29.710
02/16/2005 9:00 p -- 37.7 37.7 38.0 37.4 -- -- 3.0 13.0 SE 0.00 29.713
02/16/2005 9:30 p -- 37.0 37.0 37.6 36.5 -- -- 2.0 10.0 SE 0.00 29.732
02/16/2005 10:00 p -- 36.1 36.1 37.0 35.2 -- -- 1.0 6.0 SE 0.00 29.737
02/16/2005 10:30 p -- 35.8 35.8 36.1 35.5 -- -- 2.0 10.0 SSE 0.00 29.741
02/16/2005 11:00 p -- 35.6 35.6 36.0 35.3 -- -- 2.0 10.0 SE 0.00 29.746
02/16/2005 11:30 p -- 35.6 35.6 36.0 35.1 -- -- 2.0 9.0 SE 0.00 29.744
02/17/2005 12:00 a -- 35.1 35.1 35.7 34.8 -- -- 1.0 6.0 SE 0.00 29.757
02/17/2005 12:30 a -- 34.6 34.6 34.9 34.3 -- -- 1.0 5.0 SE 0.00 29.775
02/17/2005 1:00 a -- 34.3 34.3 34.5 34.0 -- -- 2.0 6.0 SE 0.00 29.778
02/17/2005 1:30 a -- 33.7 33.7 34.1 33.3 -- -- 1.0 6.0 SE 0.00 29.780
02/17/2005 2:00 a -- 33.3 33.3 33.6 33.0 -- -- 1.0 5.0 SE 0.00 29.769
02/17/2005 2:30 a -- 32.4 32.4 33.0 31.7 -- -- 0.0 3.0 S 0.00 29.759
02/17/2005 3:00 a -- 31.2 31.2 31.9 30.7 -- -- 0.0 1.0 ESE 0.00 29.751
02/17/2005 3:30 a -- 31.3 31.3 32.2 30.8 -- -- 1.0 7.0 SSE 0.00 29.744
02/17/2005 4:00 a -- 30.4 30.4 31.0 29.8 -- -- 0.0 0.0 --- 0.00 29.745
02/17/2005 4:30 a -- 30.1 30.1 31.2 29.2 -- -- 0.0 4.0 SE 0.00 29.746
02/17/2005 5:00 a -- 30.3 30.3 30.9 29.5 -- -- 0.0 1.0 --- 0.00 29.753
02/17/2005 5:30 a -- 30.4 30.4 30.8 29.6 -- -- 0.0 4.0 SE 0.00 29.747
02/17/2005 6:00 a -- 31.0 31.0 32.1 30.0 -- -- 0.0 2.0 ESE 0.00 29.747
02/17/2005 6:30 a -- 28.5 28.5 30.8 27.5 -- -- 0.0 0.0 --- 0.00 29.753
02/17/2005 7:00 a -- 27.5 27.5 27.7 27.1 -- -- 0.0 0.0 --- 0.00 29.761
02/17/2005 7:30 a -- 27.4 27.4 27.6 27.1 -- -- 0.0 0.0 --- 0.00 29.775
02/17/2005 8:00 a -- 29.0 29.0 31.0 27.4 -- -- 0.0 0.0 --- 0.00 29.776
02/17/2005 8:30 a -- 32.9 32.9 33.9 31.0 -- -- 0.0 1.0 --- 0.00 29.773
02/17/2005 9:00 a -- 34.3 34.3 34.9 33.7 -- -- 0.0 1.0 ESE 0.00 29.767
02/17/2005 9:30 a -- 35.1 35.1 35.5 34.7 -- -- 1.0 4.0 SE 0.00 29.765
02/17/2005 10:00 a -- 35.5 35.5 36.0 35.2 -- -- 1.0 9.0 SE 0.00 29.746
02/17/2005 10:30 a -- 36.4 36.4 37.0 35.7 -- -- 2.0 6.0 SE 0.00 29.744
02/17/2005 11:00 a -- 37.7 37.7 38.4 36.9 -- -- 1.0 6.0 SE 0.00 29.740
02/17/2005 11:30 a -- 39.5 39.5 40.6 38.1 -- -- 0.0 3.0 SE 0.00 29.722
02/17/2005 12:00 p -- 40.4 40.4 40.9 39.8 -- -- 1.0 4.0 SE 0.00 29.706
02/17/2005 12:30 p -- 40.7 40.7 42.1 40.1 -- -- 2.0 8.0 SE 0.00 29.690
02/17/2005 1:00 p -- 41.5 41.5 43.3 40.1 -- -- 2.0 9.0 SE 0.00 29.680
02/17/2005 1:30 p -- 40.2 40.2 42.1 39.2 -- -- 3.0 11.0 SE 0.00 29.672
02/17/2005 2:00 p -- 40.2 40.2 42.0 38.6 -- -- 2.0 12.0 SE 0.00 29.667
02/17/2005 2:30 p -- 41.8 41.8 43.0 40.8 -- -- 3.0 14.0 SE 0.00 29.662
02/17/2005 3:00 p -- 42.1 42.1 44.2 40.7 -- -- 3.0 13.0 SE 0.00 29.659
02/17/2005 3:30 p -- 42.1 42.1 42.6 41.3 -- -- 3.0 10.0 SE 0.00 29.670
02/17/2005 4:00 p -- 39.9 39.9 41.6 39.4 -- -- 3.0 13.0 SE 0.00 29.668
02/17/2005 4:30 p -- 39.4 39.4 39.7 38.8 -- -- 3.0 14.0 SE 0.00 29.678
02/17/2005 5:00 p -- 38.3 38.3 38.9 37.8 -- -- 2.0 6.0 SE 0.00 29.692
02/17/2005 5:30 p -- 37.8 37.8 38.1 37.6 -- -- 2.0 11.0 SE 0.00 29.699
02/17/2005 6:00 p -- 37.4 37.4 38.0 37.0 -- -- 2.0 7.0 SE 0.00 29.713
02/17/2005 6:30 p -- 36.4 36.4 37.2 35.5 -- -- 2.0 7.0 SE 0.00 29.722
02/17/2005 7:00 p -- 34.8 34.8 35.6 34.5 -- -- 0.0 3.0 SE 0.00 29.730
02/17/2005 7:30 p -- 34.5 34.5 34.9 33.9 -- -- 1.0 9.0 SE 0.00 29.738
02/17/2005 8:00 p -- 33.5 33.5 34.2 33.0 -- -- 1.0 4.0 SE 0.00 29.745
02/17/2005 8:30 p -- 32.8 32.8 34.1 31.6 -- -- 2.0 12.0 SE 0.00 29.754
02/17/2005 9:00 p -- 31.5 31.5 31.8 31.1 -- -- 1.0 6.0 SE 0.00 29.763
02/17/2005 9:30 p -- 30.8 30.8 31.2 30.4 -- -- 0.0 4.0 SE 0.00 29.768
02/17/2005 10:00 p -- 30.4 30.4 30.6 30.2 -- -- 0.0 1.0 SE 0.00 29.779
02/17/2005 10:30 p -- 30.8 30.8 31.6 30.3 -- -- 0.0 2.0 SE 0.00 29.777
02/17/2005 11:00 p -- 31.3 31.3 31.7 30.8 -- -- 1.0 8.0 SE 0.00 29.780
02/17/2005 11:30 p -- 31.6 31.6 31.8 31.4 -- -- 2.0 7.0 SE 0.00 29.783
02/18/2005 12:00 a -- 31.5 31.5 31.7 31.2 -- -- 2.0 7.0 SE 0.00 29.789
02/18/2005 12:30 a -- 30.5 30.5 31.4 29.7 -- -- 1.0 8.0 SE 0.00 29.787
02/18/2005 1:00 a -- 29.1 29.1 29.9 28.6 -- -- 0.0 4.0 SE 0.00 29.790
02/18/2005 1:30 a -- 28.7 28.7 29.2 28.3 -- -- 1.0 7.0 SE 0.00 29.790
02/18/2005 2:00 a -- 28.6 28.6 29.2 28.3 -- -- 1.0 5.0 SE 0.00 29.800
02/18/2005 2:30 a -- 28.5 28.5 29.0 28.0 -- -- 2.0 10.0 SE 0.00 29.801
02/18/2005 3:00 a -- 27.9 27.9 28.3 27.5 -- -- 3.0 11.0 SE 0.00 29.799
02/18/2005 3:30 a -- 27.2 27.2 27.6 26.7 -- -- 1.0 7.0 SE 0.00 29.801
02/18/2005 4:00 a -- 26.7 26.7 27.1 26.2 -- -- 1.0 6.0 SE 0.00 29.806
02/18/2005 4:30 a -- 26.1 26.1 26.4 25.8 -- -- 0.0 3.0 SE 0.00 29.811
02/18/2005 5:00 a -- 26.1 26.1 26.4 25.8 -- -- 1.0 7.0 SE 0.00 29.823
02/18/2005 5:30 a -- 25.5 25.5 26.0 25.0 -- -- 0.0 3.0 NW 0.00 29.830
02/18/2005 6:00 a -- 25.4 25.4 25.9 24.9 -- -- 0.0 4.0 SE 0.00 29.840
02/18/2005 6:30 a -- 25.0 25.0 25.5 24.6 -- -- 0.0 5.0 SE 0.00 29.850
02/18/2005 7:00 a -- 24.7 24.7 25.2 24.5 -- -- 0.0 4.0 ESE 0.00 29.851
02/18/2005 7:30 a -- 25.8 25.8 26.6 25.2 -- -- 1.0 5.0 SE 0.00 29.864
02/18/2005 8:00 a -- 27.2 27.2 28.1 26.5 -- -- 1.0 9.0 SE 0.00 29.875
02/18/2005 8:30 a -- 28.7 28.7 29.3 27.9 -- -- 2.0 8.0 SE 0.00 29.874
02/18/2005 9:00 a -- 29.0 29.0 29.6 28.0 -- -- 4.0 12.0 SE 0.00 29.875
02/18/2005 9:30 a -- 30.0 30.0 31.0 29.2 -- -- 4.0 15.0 SE 0.00 29.876
02/18/2005 10:00 a -- 30.6 30.6 32.1 29.8 -- -- 4.0 11.0 SE 0.00 29.884
02/18/2005 10:30 a -- 31.3 31.3 33.9 29.5 -- -- 4.0 12.0 SE 0.00 29.879
02/18/2005 11:00 a -- 31.9 31.9 34.2 30.6 -- -- 4.0 12.0 SE 0.00 29.890
02/18/2005 11:30 a -- 31.5 31.5 33.9 29.7 -- -- 3.0 13.0 SE 0.00 29.895
02/18/2005 12:00 p -- 31.5 31.5 35.8 29.1 -- -- 3.0 11.0 SE 0.00 29.874
02/18/2005 12:30 p -- 31.3 31.3 35.0 28.5 -- -- 4.0 12.0 SE 0.00 29.877
02/18/2005 1:00 p -- 31.4 31.4 33.0 30.4 -- -- 4.0 15.0 SE 0.00 29.875
02/18/2005 1:30 p -- 32.2 32.2 35.1 30.2 -- -- 4.0 18.0 SE 0.00 29.873
02/18/2005 2:00 p -- 30.2 30.2 33.4 28.5 -- -- 4.0 14.0 SE 0.00 29.884
02/18/2005 2:30 p -- 29.2 29.2 30.1 28.6 -- -- 4.0 16.0 SE 0.00 29.887
02/18/2005 3:00 p -- 29.6 29.6 31.5 28.5 -- -- 4.0 13.0 SE 0.00 29.892
02/18/2005 3:30 p -- 30.9 30.9 31.6 30.1 -- -- 4.0 14.0 SE 0.00 29.904
02/18/2005 4:00 p -- 29.7 29.7 30.6 29.1 -- -- 3.0 10.0 SE 0.00 29.916
02/18/2005 4:30 p -- 29.1 29.1 29.7 28.7 -- -- 3.0 15.0 SE 0.00 29.925
02/18/2005 5:00 p -- 28.6 28.6 29.4 27.5 -- -- 3.0 11.0 SE 0.00 29.940
02/18/2005 5:30 p -- 27.1 27.1 27.6 26.7 -- -- 4.0 11.0 SE 0.00 29.951
02/18/2005 6:00 p -- 26.5 26.5 26.8 26.1 -- -- 2.0 9.0 SE 0.00 29.968
02/18/2005 6:30 p -- 26.3 26.3 26.7 25.9 -- -- 3.0 10.0 SE 0.00 29.986
02/18/2005 7:00 p -- 25.9 25.9 26.2 25.5 -- -- 3.0 9.0 SE 0.00 29.997
02/18/2005 7:30 p -- 25.3 25.3 26.1 24.8 -- -- 3.0 12.0 SSE 0.00 30.017
02/18/2005 8:00 p -- 24.6 24.6 25.0 24.1 -- -- 3.0 12.0 SE 0.00 30.033
02/18/2005 8:30 p -- 23.8 23.8 24.2 23.4 -- -- 4.0 16.0 SE 0.00 30.046
02/18/2005 9:00 p -- 23.3 23.3 23.6 22.9 -- -- 3.0 13.0 SSE 0.00 30.058
02/18/2005 9:30 p -- 22.8 22.8 23.1 22.5 -- -- 3.0 11.0 SE 0.00 30.068
02/18/2005 10:00 p -- 22.2 22.2 22.7 21.7 -- -- 2.0 9.0 SE 0.00 30.075
02/18/2005 10:30 p -- 21.6 21.6 21.9 21.4 -- -- 2.0 11.0 SE 0.00 30.080
02/18/2005 11:00 p -- 21.3 21.3 21.7 20.8 -- -- 2.0 8.0 SE 0.00 30.090
02/18/2005 11:30 p -- 20.7 20.7 21.3 20.3 -- -- 3.0 11.0 SE 0.00 30.079
02/19/2005 12:00 a -- 20.1 20.1 20.5 19.9 -- -- 2.0 7.0 SE 0.00 30.089
02/19/2005 12:30 a -- 19.4 19.4 20.0 19.0 -- -- 1.0 5.0 SE 0.00 30.086
02/19/2005 1:00 a -- 18.7 18.7 19.0 18.5 -- -- 1.0 4.0 SSW 0.00 30.091
02/19/2005 1:30 a -- 18.4 18.4 18.7 18.1 -- -- 1.0 4.0 SE 0.00 30.097
02/19/2005 2:00 a -- 18.2 18.2 18.6 17.9 -- -- 1.0 4.0 SE 0.00 30.105
02/19/2005 2:30 a -- 18.0 18.0 18.3 17.7 -- -- 1.0 7.0 SE 0.00 30.110
02/19/2005 3:00 a -- 17.8 17.8 18.0 17.4 -- -- 1.0 4.0 ESE 0.00 30.115
02/19/2005 3:30 a -- 17.7 17.7 18.1 17.4 -- -- 1.0 6.0 SE 0.00 30.123
02/19/2005 4:00 a -- 17.7 17.7 18.2 17.5 -- -- 1.0 6.0 SE 0.00 30.142
02/19/2005 4:30 a -- 17.5 17.5 17.7 17.3 -- -- 1.0 4.0 SE 0.00 30.155
02/19/2005 5:00 a -- 17.5 17.5 17.8 17.2 -- -- 2.0 8.0 SE 0.00 30.160
02/19/2005 5:30 a -- 17.2 17.2 17.5 16.9 -- -- 1.0 4.0 SE 0.00 30.164
02/19/2005 6:00 a -- 16.8 16.8 17.1 16.6 -- -- 1.0 5.0 SE 0.00 30.173
02/19/2005 6:30 a -- 17.0 17.0 17.4 16.7 -- -- 0.0 3.0 SE 0.00 30.187
02/19/2005 7:00 a -- 16.7 16.7 17.0 16.3 -- -- 0.0 3.0 SE 0.00 30.195
02/19/2005 7:30 a -- 17.8 17.8 18.8 17.0 -- -- 1.0 4.0 SE 0.00 30.210
02/19/2005 8:00 a -- 19.5 19.5 20.5 18.8 -- -- 1.0 6.0 SE 0.00 30.217
02/19/2005 8:30 a -- 21.0 21.0 22.2 20.4 -- -- 2.0 10.0 SE 0.00 30.226
02/19/2005 9:00 a -- 22.3 22.3 23.1 21.6 -- -- 3.0 9.0 SE 0.00 30.220
02/19/2005 9:30 a -- 23.3 23.3 24.2 22.5 -- -- 3.0 7.0 SE 0.00 30.223
02/19/2005 10:00 a -- 24.6 24.6 25.6 23.8 -- -- 3.0 13.0 SE 0.00 30.224
02/19/2005 10:30 a -- 25.6 25.6 27.5 24.4 -- -- 4.0 13.0 SE 0.00 30.220
02/19/2005 11:00 a -- 27.2 27.2 28.4 26.3 -- -- 4.0 12.0 SE 0.00 30.222
02/19/2005 11:30 a -- 28.7 28.7 30.4 27.3 -- -- 3.0 12.0 SE 0.00 30.206
02/19/2005 12:00 p -- 30.0 30.0 30.8 29.3 -- -- 3.0 11.0 SE 0.00 30.194
02/19/2005 12:30 p -- 31.8 31.8 33.5 29.9 -- -- 2.0 10.0 SE 0.00 30.173
02/19/2005 1:00 p -- 32.8 32.8 34.3 31.3 -- -- 2.0 10.0 SE 0.00 30.171
02/19/2005 1:30 p -- 33.3 33.3 33.9 32.2 -- -- 3.0 9.0 SE 0.00 30.155
02/19/2005 2:00 p -- 33.8 33.8 34.6 32.7 -- -- 2.0 8.0 SE 0.00 30.142
02/19/2005 2:30 p -- 33.9 33.9 34.5 33.0 -- -- 2.0 6.0 SE 0.00 30.149
02/19/2005 3:00 p -- 33.3 33.3 34.2 32.0 -- -- 2.0 8.0 SE 0.00 30.149
02/19/2005 3:30 p -- 33.1 33.1 33.9 32.4 -- -- 2.0 8.0 SE 0.00 30.145
02/19/2005 4:00 p -- 33.0 33.0 33.5 32.4 -- -- 2.0 9.0 SE 0.00 30.152
02/19/2005 4:30 p -- 32.3 32.3 32.7 31.9 -- -- 3.0 10.0 SE 0.00 30.160
02/19/2005 5:00 p -- 31.5 31.5 32.0 31.0 -- -- 2.0 7.0 SE 0.00 30.167
02/19/2005 5:30 p -- 30.9 30.9 31.2 30.5 -- -- 1.0 6.0 SE 0.00 30.174
02/19/2005 6:00 p -- 30.1 30.1 30.7 29.5 -- -- 1.0 5.0 SE 0.00 30.192
02/19/2005 6:30 p -- 29.4 29.4 29.8 29.0 -- -- 0.0 3.0 NW 0.00 30.206
02/19/2005 7:00 p -- 28.5 28.5 29.3 27.9 -- -- 0.0 2.0 E 0.00 30.218
02/19/2005 7:30 p -- 27.8 27.8 28.2 27.6 -- -- 0.0 0.0 --- 0.00 30.224
02/19/2005 8:00 p -- 26.8 26.8 27.6 26.2 -- -- 0.0 0.0 --- 0.00 30.223
02/19/2005 8:30 p -- 25.6 25.6 26.2 24.8 -- -- 0.0 0.0 --- 0.00 30.228
02/19/2005 9:00 p -- 24.5 24.5 24.9 23.9 -- -- 0.0 0.0 --- 0.00 30.233
02/19/2005 9:30 p -- 24.1 24.1 24.2 23.9 -- -- 0.0 0.0 --- 0.00 30.231
02/19/2005 10:00 p -- 24.1 24.1 24.4 23.8 -- -- 0.0 0.0 --- 0.00 30.230
02/19/2005 10:30 p -- 24.2 24.2 24.3 24.1 -- -- 0.0 0.0 --- 0.00 30.231
02/19/2005 11:00 p -- 24.1 24.1 24.3 23.9 -- -- 0.0 0.0 --- 0.00 30.224
02/19/2005 11:30 p -- 23.6 23.6 23.9 23.4 -- -- 0.0 0.0 --- 0.00 30.216
02/20/2005 12:00 a -- 23.8 23.8 24.0 23.5 -- -- 0.0 0.0 --- 0.00 30.226
02/20/2005 12:30 a -- 23.1 23.1 23.8 22.6 -- -- 0.0 0.0 --- 0.00 30.227
02/20/2005 1:00 a -- 22.5 22.5 23.0 22.0 -- -- 0.0 0.0 --- 0.00 30.226
02/20/2005 1:30 a -- 21.8 21.8 22.2 21.4 -- -- 0.0 0.0 --- 0.00 30.237
02/20/2005 2:00 a -- 21.4 21.4 21.7 21.1 -- -- 0.0 0.0 --- 0.00 30.245
02/20/2005 2:30 a -- 21.5 21.5 21.7 21.3 -- -- 0.0 0.0 --- 0.00 30.257
02/20/2005 3:00 a -- 22.2 22.2 23.1 21.2 -- -- 0.0 0.0 --- 0.00 30.260
02/20/2005 3:30 a -- 23.4 23.4 23.6 23.0 -- -- 0.0 0.0 --- 0.00 30.262
02/20/2005 4:00 a -- 23.9 23.9 24.9 23.4 -- -- 0.0 0.0 --- 0.00 30.276
02/20/2005 4:30 a -- 25.2 25.2 25.7 24.7 -- -- 0.0 0.0 --- 0.00 30.286
02/20/2005 5:00 a -- 24.5 24.5 25.3 23.3 -- -- 0.0 0.0 --- 0.00 30.294
02/20/2005 5:30 a -- 22.9 22.9 23.3 22.2 -- -- 0.0 0.0 --- 0.00 30.298
02/20/2005 6:00 a -- 22.3 22.3 22.4 22.1 -- -- 0.0 0.0 --- 0.00 30.305
02/20/2005 6:30 a -- 21.3 21.3 22.1 20.9 -- -- 0.0 0.0 --- 0.00 30.323
02/20/2005 7:00 a -- 21.3 21.3 21.5 21.1 -- -- 0.0 0.0 --- 0.00 30.337
02/20/2005 7:30 a -- 23.5 23.5 24.6 21.5 -- -- 0.0 0.0 --- 0.00 30.358
02/20/2005 8:00 a -- 25.9 25.9 28.5 24.3 -- -- 0.0 2.0 E 0.00 30.361
02/20/2005 8:30 a -- 30.0 30.0 30.9 28.6 -- -- 0.0 4.0 E 0.00 30.360
02/20/2005 9:00 a -- 31.6 31.6 32.6 30.6 -- -- 1.0 5.0 SSE 0.00 30.362
02/20/2005 9:30 a -- 32.3 32.3 33.7 31.3 -- -- 1.0 10.0 S 0.00 30.369
02/20/2005 10:00 a -- 33.6 33.6 34.4 32.8 -- -- 2.0 7.0 SE 0.00 30.369
02/20/2005 10:30 a -- 35.7 35.7 37.0 34.2 -- -- 2.0 6.0 SE 0.00 30.366
02/20/2005 11:00 a -- 36.1 36.1 36.9 35.3 -- -- 1.0 6.0 SE 0.00 30.348
02/20/2005 11:30 a -- 36.8 36.8 37.4 36.3 -- -- 2.0 6.0 SE 0.00 30.339
02/20/2005 12:00 p -- 37.4 37.4 38.8 36.7 -- -- 1.0 6.0 SE 0.00 30.321
02/20/2005 12:30 p -- 39.6 39.6 41.1 38.5 -- -- 1.0 6.0 SE 0.00 30.319
02/20/2005 1:00 p -- 39.8 39.8 40.7 39.0 -- -- 1.0 5.0 SE 0.00 30.303
02/20/2005 1:30 p -- 40.0 40.0 41.4 38.5 -- -- 1.0 4.0 S 0.00 30.287
02/20/2005 2:00 p -- 40.4 40.4 41.7 39.4 -- -- 1.0 5.0 SE 0.00 30.273
02/20/2005 2:30 p -- 40.4 40.4 41.5 39.5 -- -- 1.0 4.0 SE 0.00 30.264
02/20/2005 3:00 p -- 40.3 40.3 41.7 39.1 -- -- 0.0 3.0 N 0.00 30.256
02/20/2005 3:30 p -- 41.4 41.4 43.1 39.6 -- -- 1.0 4.0 SE 0.00 30.242
02/20/2005 4:00 p -- 39.7 39.7 41.7 37.7 -- -- 0.0 4.0 SE 0.00 30.246
02/20/2005 4:30 p -- 37.3 37.3 37.8 36.9 -- -- 0.0 2.0 SE 0.00 30.242
02/20/2005 5:00 p -- 37.0 37.0 37.2 36.6 -- -- 0.0 2.0 ESE 0.00 30.250
02/20/2005 5:30 p -- 36.4 36.4 36.8 35.7 -- -- 0.0 0.0 --- 0.00 30.239
02/20/2005 6:00 p -- 35.7 35.7 36.1 35.2 -- -- 0.0 0.0 --- 0.00 30.239
02/20/2005 6:30 p -- 35.3 35.3 35.8 34.8 -- -- 0.0 0.0 --- 0.00 30.230
02/20/2005 7:00 p -- 34.8 34.8 35.4 33.9 -- -- 2.0 8.0 N 0.00 30.241
02/20/2005 7:30 p -- 33.7 33.7 33.9 33.5 -- -- 1.0 6.0 N 0.00 30.241
02/20/2005 8:00 p -- 31.7 31.7 33.8 30.5 -- -- 1.0 7.0 N 0.00 30.228
02/20/2005 8:30 p -- 30.2 30.2 30.5 30.0 -- -- 1.0 3.0 N 0.00 30.214
02/20/2005 9:00 p -- 30.3 30.3 30.4 30.2 -- -- 0.0 3.0 N 0.00 30.210
02/20/2005 9:30 p -- 30.1 30.1 30.4 29.8 -- -- 0.0 3.0 NNW 0.00 30.206
02/20/2005 10:00 p -- 29.9 29.9 30.1 29.7 -- -- 1.0 4.0 NNW 0.00 30.182
02/20/2005 10:30 p -- 29.8 29.8 30.2 29.6 -- -- 1.0 5.0 N 0.00 30.178
02/20/2005 11:00 p -- 29.7 29.7 29.9 29.4 -- -- 1.0 5.0 N 0.00 30.167
02/20/2005 11:30 p -- 29.4 29.4 29.6 29.3 -- -- 1.0 4.0 N 0.00 30.132
02/21/2005 12:00 a -- 29.6 29.6 29.8 29.5 -- -- 1.0 6.0 NNW 0.00 30.111
02/21/2005 12:30 a -- 29.7 29.7 29.8 29.6 -- -- 0.0 4.0 N 0.00 30.104
02/21/2005 1:00 a -- 29.7 29.7 29.9 29.6 -- -- 1.0 3.0 N 0.00 30.071
02/21/2005 1:30 a -- 30.0 30.0 30.2 29.8 -- -- 0.0 3.0 N 0.00 30.074
02/21/2005 2:00 a -- 30.4 30.4 30.5 30.1 -- -- 0.0 2.0 N 0.00 30.054
02/21/2005 2:30 a -- 30.6 30.6 30.8 30.5 -- -- 0.0 2.0 N 0.00 30.022
02/21/2005 3:00 a -- 30.9 30.9 31.1 30.8 -- -- 0.0 2.0 N 0.00 29.995
02/21/2005 3:30 a -- 31.2 31.2 31.4 31.0 -- -- 1.0 4.0 N 0.00 29.985
02/21/2005 4:00 a -- 31.6 31.6 31.7 31.4 -- -- 0.0 2.0 N 0.00 29.971
02/21/2005 4:30 a -- 31.7 31.7 31.9 31.6 -- -- 0.0 2.0 N 0.00 29.951
02/21/2005 5:00 a -- 32.1 32.1 32.3 31.8 -- -- 0.0 3.0 N 0.00 29.937
02/21/2005 5:30 a -- 32.5 32.5 32.7 32.3 -- -- 0.0 3.0 WNW 0.00 29.930
02/21/2005 6:00 a -- 32.8 32.8 33.0 32.6 -- -- 0.0 2.0 N 0.00 29.911
02/21/2005 6:30 a -- 33.2 33.2 33.4 32.9 -- -- 0.0 2.0 NW 0.00 29.898
02/21/2005 7:00 a -- 33.5 33.5 33.7 33.4 -- -- 0.0 3.0 NNW 0.00 29.888
02/21/2005 7:30 a -- 33.8 33.8 34.0 33.6 -- -- 0.0 2.0 WNW 0.00 29.881
02/21/2005 8:00 a -- 34.2 34.2 34.4 33.9 -- -- 0.0 2.0 WNW 0.00 29.878
02/21/2005 8:30 a -- 34.7 34.7 35.1 34.3 -- -- 0.0 1.0 --- 0.00 29.851
02/21/2005 9:00 a -- 35.3 35.3 35.6 34.9 -- -- 0.0 2.0 SSW 0.00 29.858
02/21/2005 9:30 a -- 35.6 35.6 35.9 35.3 -- -- 0.0 3.0 WNW 0.00 29.846
02/21/2005 10:00 a -- 36.3 36.3 36.8 35.8 -- -- 0.0 2.0 WSW 0.00 29.841
02/21/2005 10:30 a -- 36.4 36.4 37.1 35.8 -- -- 0.0 3.0 SW 0.00 29.850
02/21/2005 11:00 a -- 36.8 36.8 37.3 36.5 -- -- 0.0 3.0 SW 0.00 29.844
02/21/2005 11:30 a -- 37.1 37.1 37.8 36.3 -- -- 1.0 3.0 SSW 0.00 29.832
02/21/2005 12:00 p -- 37.5 37.5 38.0 37.0 -- -- 0.0 3.0 SW 0.00 29.828
02/21/2005 12:30 p -- 37.3 37.3 37.9 36.7 -- -- 1.0 3.0 SSW 0.01 29.821
02/21/2005 1:00 p -- 37.1 37.1 37.7 36.7 -- -- 1.0 4.0 SSW 0.01 29.812
02/21/2005 1:30 p -- 37.3 37.3 37.8 36.7 -- -- 0.0 3.0 SSW 0.02 29.815
02/21/2005 2:00 p -- 37.4 37.4 38.4 36.6 -- -- 0.0 3.0 S 0.02 29.809
02/21/2005 2:30 p -- 37.3 37.3 38.2 36.7 -- -- 0.0 3.0 SW 0.02 29.802
02/21/2005 3:00 p -- 37.1 37.1 37.6 36.7 -- -- 0.0 2.0 W 0.01 29.802
02/21/2005 3:30 p -- 36.6 36.6 37.0 36.1